bonski Games - Total: 1048
1 2
Rank Song Name Score PGAMB Combo Time
281 toromi hearts 2 926,350 830 - 27 - 3 - 2 - 6 463 2024-03-20 14:34:26
414 toromi hearts 2 30,380 21 - 0 - 0 - 7 - 0 21 2024-03-20 14:33:28
244 toromi hearts 2 1,278,860 1,086 - 22 - 2 - 8 - 6 678 2024-03-20 14:33:20
1,265 ANiMA [Deemo Cut] 846,980 845 - 12 - 6 - 14 - 3 383 2024-03-20 14:30:46
103 Angel's Ladder [SR] 1,730,130 1,564 - 21 - 1 - 2 - 14 865 2024-03-20 14:28:47
221 Grief & Malice [SR] 1,382,685 1,552 - 16 - 1 - 7 - 10 527 2024-03-20 14:25:10
1,026 Gate Openerz 829,015 538 - 5 - 0 - 4 - 1 533 2024-03-20 14:21:49
355 Gate Openerz [PB] 2,394,620 2,182 - 29 - 7 - 2 - 11 1,187 2024-03-20 14:20:34
3,068 11ELEVEN [PB] 520,535 560 - 22 - 3 - 2 - 3 207 2024-03-20 14:17:51
519 Ubiquity [SR] 831,970 532 - 5 - 1 - 0 - 3 538 2024-03-20 14:16:09
185 Pretty Girls With Mental Disorders [PB] 1,736,745 1,909 - 3 - 0 - 3 - 5 687 2024-03-20 14:13:52
1,045 G e n g a o z o 731,800 503 - 21 - 1 - 2 - 3 450 2024-03-20 14:09:21
478 Tuberculosis 36,580 24 - 0 - 0 - 2 - 0 24 2024-03-20 14:08:30
429 Tuberculosis [SR] 530,845 350 - 1 - 0 - 3 - 0 339 2024-03-20 14:03:55
2,729 Boot 756,405 501 - 4 - 1 - 4 - 3 481 2024-03-20 14:02:07
5,191 Shihen [SR] 902,320 590 - 4 - 0 - 4 - 2 578 2024-03-20 14:00:52
917 Cutting Circles [PB] 1,196,845 898 - 1 - 0 - 1 - 1 703 2024-03-20 13:59:15
1,830 Pure Ruby 1,630,375 1,050 - 3 - 0 - 3 - 1 1,053 2024-02-18 17:01:47
525 Identity [Part 5] [SR] 476,615 423 - 1 - 0 - 1 - 0 244 2024-02-18 16:57:27
1,354 Before Cynthia 405,845 338 - 7 - 0 - 16 - 1 223 2024-02-18 16:55:41
347 Etude for the Sinners [SR] 2,007,290 1,707 - 55 - 1 - 2 - 6 1,054 2024-02-18 16:54:42
488 [line:theta] [SR] 1,117,065 717 - 13 - 2 - 3 - 2 720 2024-02-18 16:52:19
622 VIS::CRACKED [PB] 263,275 168 - 3 - 0 - 3 - 1 171 2024-02-18 16:50:25
718 VIS::CRACKED [SR] 42,885 26 - 3 - 0 - 4 - 0 29 2024-02-18 16:49:55
354 Shindeiru [SR] 691,940 565 - 42 - 0 - 4 - 6 371 2024-02-18 16:49:29
2,416 Magical 8bit Tour [PB] 1,480,915 1,157 - 42 - 1 - 16 - 4 838 2024-02-18 16:42:41
5,047 Magical 8bit Tour 108,515 70 - 1 - 0 - 4 - 1 71 2024-02-18 16:40:50
5,595 Magical 8bit Tour 18,015 11 - 1 - 0 - 1 - 0 12 2024-02-18 16:40:20
4,051 Magical 8bit Tour [SR] 270,345 199 - 3 - 0 - 3 - 0 161 2024-02-18 16:39:11
1,870 o'er the flood [SR] 23,250 15 - 0 - 0 - 0 - 0 15 2024-02-18 16:38:37
1,932 -+ 599,805 376 - 14 - 1 - 6 - 2 391 2024-02-18 16:37:09
2,590 -+ 12,400 8 - 0 - 0 - 0 - 0 8 2024-02-18 16:36:18
4,070 All i wanna do is touch your powerpoints 708,830 453 - 6 - 0 - 3 - 2 459 2024-02-18 16:35:32
179 Breakout [Heavy] [FC] [PB] 2,366,180 1,520 - 8 - 0 - 0 - 1 1,528 2024-02-18 16:34:05
1,665 Breakout [Heavy] [SR] 4,650 3 - 0 - 0 - 0 - 0 3 2024-02-18 16:27:45
2,775 Boot 695,840 449 - 2 - 0 - 2 - 2 449 2024-02-18 16:27:08
3,546 Boot 173,325 111 - 1 - 0 - 0 - 0 112 2024-02-18 16:25:11
514 Break The Silence [PB] 370,565 335 - 15 - 2 - 6 - 3 184 2024-02-13 05:02:04
80 dreamless wanderer [SR] 237,485 231 - 22 - 1 - 5 - 6 106 2024-02-13 05:01:32
314 Blackmagik Blazing [SR] 1,399,435 2,013 - 140 - 11 - 30 - 26 263 2024-02-13 04:57:53
69 Tuk Tuk Boshi [SR] 1,444,260 1,594 - 14 - 2 - 4 - 8 565 2024-02-13 04:51:47
209 SpaceLand*TOYBOX [SR] 2,017,865 1,366 - 19 - 0 - 2 - 2 1,262 2024-02-13 04:49:08
1,163 SpaceLand*TOYBOX [SR] 125 0 - 0 - 1 - 3 - 0 1 2024-02-13 04:47:12
181 Amphisbaena [PB] 1,914,990 1,299 - 8 - 0 - 2 - 2 1,199 2024-02-13 04:46:47
151 looming shadow of a tree long gone [SR] 2,817,485 2,868 - 35 - 2 - 5 - 5 1,232 2024-02-13 04:44:19
221 toromi hearts 2 [PB] 1,977,005 1,342 - 95 - 2 - 7 - 8 1,215 2024-02-13 04:40:38
416 Chronostasis [PB] 1,415,565 1,446 - 9 - 0 - 7 - 2 620 2024-02-13 04:38:08
676 G e n g a o z o [PB] 1,177,825 1,427 - 69 - 2 - 19 - 11 380 2024-02-12 18:54:02
331 Finixe [SR] 2,208,340 2,170 - 73 - 3 - 4 - 8 996 2024-02-12 18:51:50
130 Nhelv [PB] 1,340,265 1,451 - 102 - 7 - 6 - 18 516 2024-02-12 18:48:18
199 Nhelv [SR] 26,350 17 - 0 - 0 - 0 - 0 17 2024-02-12 18:46:16
418 For UltraPlayers [PB] 2,008,480 1,602 - 44 - 2 - 5 - 14 1,117 2024-02-12 18:45:25
1,337 For UltraPlayers 571,515 488 - 6 - 1 - 5 - 2 303 2024-02-12 18:43:08
53 ATHAZA [PB] 1,819,995 1,583 - 11 - 0 - 2 - 3 947 2024-02-12 18:41:55
132 ATHAZA [SR] 143,345 96 - 0 - 1 - 11 - 5 94 2024-02-12 18:39:10
418 Mongoloid Alien 765,950 567 - 4 - 0 - 16 - 2 458 2024-02-12 18:38:29
399 .357 Magnum [FC] 2,285,265 1,467 - 9 - 0 - 0 - 3 1,476 2024-02-12 18:35:51
221 toromi hearts 2 [SR] 1,167,765 1,193 - 54 - 1 - 7 - 6 499 2023-12-11 10:03:24
518 Halcyon [xi] [PB] 1,946,195 1,641 - 18 - 1 - 4 - 6 1,040 2023-12-11 10:00:57
176 Altale [Heavy] [FC] [PB] 1,949,730 1,250 - 8 - 2 - 0 - 4 1,260 2023-12-11 09:57:23
390 .357 Magnum [FC] [SR] 2,285,320 1,468 - 7 - 1 - 0 - 3 1,476 2023-12-11 09:53:48
192 Azure [SR] 1,317,175 855 - 1 - 0 - 1 - 2 847 2023-12-11 09:49:15
760 Rengoku-Purgatorium- [SR] 1,748,380 1,340 - 37 - 5 - 9 - 14 1,004 2023-02-19 14:32:56
169 Excuse My Rudeness, but Could You Please RIP? (t+pazolite Remix) [PB] 1,537,100 1,824 - 42 - 4 - 15 - 11 527 2023-02-19 14:30:40
244 Excuse My Rudeness, but Could You Please RIP? (t+pazolite Remix) [SR] 118,080 94 - 0 - 0 - 2 - 0 67 2023-02-19 14:28:20
526 Doppelganger [PB] 1,393,930 1,741 - 58 - 0 - 11 - 8 424 2023-02-19 14:27:31
534 Halcyon [xi] [PB] 1,476,345 1,639 - 19 - 2 - 4 - 10 571 2023-02-19 14:23:30
571 Break The Silence [SR] 248,615 164 - 11 - 2 - 2 - 5 156 2023-02-19 14:20:37
1,265 Crystal Chamber Combustion (bike) [PB] 153,195 121 - 29 - 0 - 17 - 3 84 2023-02-19 14:20:11
596 G e n g a o z o [SR] 882,575 1,035 - 42 - 1 - 20 - 4 308 2023-02-19 14:19:16
609 The Limit Does Not Exist [PB] 1,225,650 1,557 - 43 - 1 - 8 - 5 360 2023-02-19 14:16:01
633 Pure Ruby [SR] 1,172,430 1,211 - 5 - 1 - 3 - 6 506 2023-02-19 14:13:11
492 Makiba [FC] [PB] 2,395,720 1,541 - 4 - 2 - 0 - 2 1,547 2023-02-19 14:06:51
358 For UltraPlayers 1,464,470 1,586 - 56 - 4 - 7 - 14 579 2021-11-27 20:58:48
643 All i wanna do is touch your powerpoints 1,709,520 1,374 - 38 - 0 - 5 - 4 945 2021-11-27 20:55:56
175 Amphisbaena 1,396,155 1,295 - 12 - 1 - 1 - 7 681 2021-11-27 20:52:15
96 C204 1,307,705 1,392 - 27 - 0 - 4 - 4 536 2021-11-27 20:49:27
260 Hello (BPM) 2021 229,590 168 - 25 - 5 - 6 - 5 132 2021-11-27 20:47:06
3,341 do i smile? 1,126,395 1,206 - 62 - 5 - 13 - 10 450 2021-11-27 20:45:36
1,838 grind2 623,930 613 - 44 - 6 - 11 - 12 278 2021-11-27 20:43:07
247 Mix a Little Foolishness 981,810 1,045 - 20 - 2 - 11 - 7 405 2021-11-27 20:41:04
669 Cloud Nine 1,128,950 884 - 5 - 1 - 2 - 3 642 2021-11-27 20:38:50
4,168 Cloud Nine 11,850 6 - 2 - 0 - 0 - 0 8 2021-11-27 20:36:27
250 Gentleman (Areia Remix) 1,002,670 685 - 18 - 0 - 3 - 5 622 2021-11-27 20:36:07
350 Gentleman (Areia Remix) 13,950 9 - 0 - 0 - 0 - 0 9 2021-11-27 20:34:47
348 Gentleman (Areia Remix) 35,650 23 - 0 - 0 - 0 - 0 23 2021-11-27 20:34:31
369 Armageddon [LeaF] 178,625 174 - 14 - 3 - 3 - 8 80 2021-11-27 20:33:53
413 Armageddon [LeaF] 10,575 7 - 0 - 1 - 1 - 1 7 2021-11-27 20:33:25
2,387 Halcyon [xi] 1,406,015 905 - 19 - 2 - 3 - 7 904 2020-12-31 09:46:31
177 Time To Sleep [FC] 806,675 515 - 5 - 2 - 0 - 3 522 2020-12-31 09:43:00
1,575 s.s.s.s. 530,125 372 - 3 - 0 - 4 - 3 326 2020-12-31 09:41:16
2,492 Purple 458,235 451 - 6 - 1 - 8 - 2 211 2020-12-31 09:39:31
1,753 Finder Keepers 703,105 519 - 19 - 2 - 2 - 3 413 2020-12-31 09:38:06
1,529 Hatsune Miku no Gekishou 413,395 358 - 3 - 0 - 1 - 1 216 2020-12-31 09:36:38
672 ANiMA [Deemo Cut] 1,001,760 835 - 31 - 1 - 3 - 7 535 2020-10-11 06:14:01
451 The Limit Does Not Exist 1,571,755 1,538 - 58 - 3 - 10 - 8 713 2020-10-11 06:12:15
388 gorechestra 859,155 647 - 17 - 0 - 17 - 5 504 2020-10-11 06:09:57
415 Gate Openerz 574,535 532 - 14 - 1 - 3 - 2 279 2020-10-11 06:08:47
288 Fanteucpx[zv 1,102,170 1,207 - 36 - 2 - 5 - 7 430 2020-10-11 06:05:12
237 Tool-Assisted Speedcore (TQBF Frame Advance RMX) 739,130 721 - 59 - 9 - 6 - 14 328 2020-10-11 06:03:10
30,766 Death Piano 309,735 315 - 73 - 4 - 25 - 3 124 2020-10-11 06:01:58
213 endleSSStation 520,875 565 - 51 - 12 - 10 - 23 199 2020-10-11 06:00:56
455 endleSSStation 33,905 21 - 5 - 2 - 3 - 10 22 2020-10-11 06:00:01
412 endleSSStation 81,030 49 - 4 - 0 - 0 - 1 53 2020-10-11 05:59:30
464 endleSSStation 22,490 15 - 2 - 0 - 1 - 0 14 2020-10-11 05:59:11
346 Arianrhod 1,543,525 1,355 - 47 - 2 - 2 - 7 786 2020-08-14 02:35:52
778 Queen of Bootlegs 702,190 695 - 19 - 1 - 4 - 5 316 2020-08-14 02:33:39
625 HAELEQUIN 1,659,185 1,416 - 39 - 0 - 4 - 5 871 2020-08-14 02:30:33
764 ANiMA [Deemo Cut] 637,610 507 - 28 - 2 - 3 - 6 352 2020-08-14 02:27:38
2,339 All i wanna do is touch your powerpoints 762,210 842 - 41 - 3 - 13 - 15 292 2020-08-14 02:26:11
7,995 Undici 19,320 11 - 1 - 1 - 0 - 3 13 2020-08-14 02:24:23
250 Tool-Assisted Speedcore (TQBF Frame Advance RMX) 603,200 505 - 85 - 5 - 6 - 17 304 2020-08-14 02:22:31
895 Resurrection Spell 1,273,930 1,128 - 37 - 3 - 5 - 13 645 2020-08-14 02:20:58
879 Felix^3 907,590 635 - 28 - 2 - 1 - 8 551 2020-08-14 02:16:32
4,230 Club 643,955 421 - 15 - 0 - 2 - 5 409 2020-08-14 02:14:32
930 Seedy Try 245,275 160 - 2 - 1 - 1 - 1 157 2020-08-14 02:12:56
630 Cloud Nine 1,173,140 879 - 11 - 1 - 1 - 4 687 2020-08-14 02:11:22
2,082 Intersect Thunderbolt 130,895 85 - 9 - 0 - 1 - 1 82 2020-08-14 02:09:25
1,911 Intersect Thunderbolt 247,460 155 - 4 - 2 - 0 - 0 161 2020-08-14 02:08:59
2,074 Intersect Thunderbolt 143,245 90 - 3 - 0 - 0 - 4 93 2020-08-14 02:08:41
934 Dreadnought [Heavy] 844,920 939 - 69 - 3 - 11 - 13 313 2020-06-25 05:18:14
1,571 Dreadnought [Heavy] 31,000 20 - 0 - 0 - 0 - 0 20 2020-06-25 05:16:44
1,732 Touch Me 677,810 520 - 10 - 2 - 3 - 6 390 2020-06-25 05:16:19
340 Altale [Heavy] 825,440 779 - 45 - 3 - 7 - 19 387 2020-06-25 05:14:51
3,169 Kanon Medley ~Metal Wings~ 113,480 85 - 5 - 1 - 2 - 4 66 2020-06-25 05:13:03
3,424 Kanon Medley ~Metal Wings~ 23,335 13 - 3 - 0 - 2 - 1 16 2020-06-25 05:11:35
2,810 Kanon Medley ~Metal Wings~ 191,230 161 - 13 - 1 - 3 - 1 100 2020-06-25 05:11:21
11,986 Flying High 364,745 256 - 1 - 0 - 1 - 1 224 2020-06-25 05:10:31
3,298 Fear Me (NGADm Entry) 575,445 499 - 13 - 2 - 5 - 7 299 2020-06-25 05:09:01
191 Pretty Girls With Mental Disorders 328,460 324 - 26 - 2 - 6 - 7 145 2020-06-21 17:42:06
3,452 Mephisto Waltz 391,355 372 - 62 - 3 - 4 - 11 171 2020-06-21 17:41:04
1,827 The Replicator 7,750 5 - 0 - 0 - 0 - 0 5 2020-06-21 17:39:15
1,290 Waterfall 1,091,135 1,201 - 19 - 0 - 8 - 8 428 2020-06-21 17:38:02
2,907 Waterfall 17,840 13 - 0 - 0 - 1 - 0 11 2020-06-21 17:35:44
2,274 Waterfall 421,470 316 - 4 - 0 - 1 - 6 247 2020-06-21 17:35:35
2,051 Waterfall 441,940 393 - 8 - 0 - 1 - 5 224 2020-06-21 17:33:52
1,798 Waterfall 447,390 496 - 12 - 0 - 5 - 8 173 2020-06-21 17:32:12
1,392 Zeitmesser 7,750 5 - 0 - 0 - 0 - 0 5 2020-06-21 17:30:39
2,950 Epilogue 94,360 77 - 6 - 0 - 2 - 1 51 2020-06-21 17:30:17
334 Celestial Horizon v2 23,250 15 - 0 - 0 - 0 - 0 15 2020-06-21 17:29:56
815 Grad Erlija 78,200 49 - 1 - 1 - 0 - 4 51 2020-06-21 17:29:40
26,030 Turkish March 140,765 96 - 1 - 0 - 1 - 0 88 2020-06-21 17:29:02
31,586 Turkish March 53,700 33 - 2 - 0 - 0 - 0 35 2020-06-21 17:28:33
33,662 Turkish March 39,750 24 - 2 - 0 - 0 - 0 26 2020-06-21 17:28:06
672 Suicide Pact 520,245 610 - 26 - 7 - 5 - 12 179 2020-06-17 12:32:29
2,151 Ofcourse you Need and nEed and neEd and neeD and NEED ME? 423,300 479 - 29 - 3 - 7 - 6 154 2020-06-17 12:31:06
832 Amphisbaena 47,270 43 - 2 - 0 - 3 - 0 24 2020-06-17 12:29:53
829 Amphisbaena 65,695 44 - 3 - 0 - 1 - 1 41 2020-06-17 12:29:44
1,046 For UltraPlayers 284,715 358 - 17 - 0 - 12 - 7 87 2020-06-17 12:28:53
288 Gate Openerz 664,825 612 - 63 - 4 - 10 - 11 314 2020-06-17 12:27:49
262 Celestial Horizon v2 506,735 434 - 11 - 0 - 3 - 3 266 2020-06-17 12:26:35
933 ANiMA [Deemo Cut] 191,880 169 - 17 - 1 - 2 - 9 95 2020-06-16 09:02:26
258 Akasha 288,355 351 - 37 - 4 - 9 - 15 88 2020-06-16 09:01:28
327 Akasha 13,950 9 - 0 - 0 - 0 - 0 9 2020-06-16 09:00:25
302 Akasha 163,985 145 - 2 - 1 - 1 - 3 84 2020-06-16 08:58:58
9,898 Sympathizer 728,235 639 - 5 - 0 - 1 - 14 376 2020-06-12 11:37:42
1,608 Intersect Thunderbolt 307,230 351 - 28 - 2 - 11 - 11 110 2020-06-12 11:35:47
2,057 Intersect Thunderbolt 117,950 86 - 7 - 1 - 1 - 1 69 2020-06-12 11:34:56
1,260 i wanna kiss the moon 544,900 332 - 23 - 1 - 0 - 4 356 2020-06-12 11:34:21
202 Mongoloid Alien 115,475 110 - 7 - 0 - 3 - 1 54 2020-06-12 11:33:26
694 Animus Intorqueo No. 3 968,980 830 - 25 - 1 - 1 - 7 506 2020-06-12 11:32:46
1,878 Aishiteru Yo Ne 262,510 209 - 8 - 0 - 2 - 1 146 2020-06-12 11:30:38
668 Animus Intorqueo No. 2 974,370 957 - 19 - 3 - 7 - 10 445 2020-06-12 11:29:49
2,340 Addict 657,455 817 - 20 - 1 - 35 - 30 214 2020-06-12 11:27:22
800 Defection 867,620 961 - 19 - 5 - 7 - 13 336 2020-06-10 07:51:07
450 Spider Dance 1,039,965 937 - 12 - 1 - 2 - 6 522 2020-06-10 07:48:25
266 New World Disorder (23's Orchestra Dubstyle Extravaganza) 1,472,540 1,236 - 15 - 1 - 4 - 10 790 2020-06-10 07:45:35
340 Laplace 841,165 870 - 12 - 1 - 5 - 7 361 2020-06-10 07:42:36
1,440 Laplace 13,950 9 - 0 - 0 - 0 - 0 9 2020-06-10 07:40:47
151 Longinus 403,035 358 - 32 - 1 - 2 - 5 198 2020-06-10 07:38:36
542 ANiMA [Deemo Cut] 723,790 975 - 101 - 5 - 17 - 12 165 2020-06-10 07:37:25
245 Zephyros 1,092,075 1,361 - 116 - 9 - 17 - 30 317 2020-06-10 07:35:27
705 Zephyros 3,100 2 - 0 - 0 - 0 - 0 2 2020-06-10 07:33:02
379 Zauberkugel 1,243,105 1,319 - 55 - 6 - 18 - 11 508 2020-06-10 07:32:04
268 Agartha 1,027,910 1,394 - 61 - 13 - 28 - 30 253 2020-06-10 07:29:10
851 Pandemonium 766,785 796 - 40 - 3 - 12 - 23 322 2020-06-10 07:26:30
188 Akasha 838,975 1,086 - 75 - 12 - 23 - 24 228 2020-06-10 07:23:53
637 -+ 787,900 1,151 - 120 - 6 - 32 - 28 132 2020-06-10 07:21:41
1,675 HAELEQUIN 905,470 920 - 43 - 5 - 11 - 11 391 2020-06-10 07:19:10
998 Candy Crack Curtain Call 369,255 234 - 11 - 0 - 1 - 8 238 2020-06-10 07:17:18
1,131 Candy Crack Curtain Call 25,145 16 - 1 - 0 - 3 - 0 17 2020-06-10 07:16:31
1,116 Candy Crack Curtain Call 72,555 46 - 1 - 0 - 0 - 1 47 2020-06-10 07:16:10
1,103 Candy Crack Curtain Call 141,010 91 - 0 - 0 - 0 - 2 91 2020-06-10 07:15:40
820 Ringo's Tea Party 212,990 189 - 6 - 0 - 5 - 3 109 2020-06-10 07:14:59
195 Before Cynthia 687,075 993 - 54 - 3 - 31 - 24 136 2020-06-10 07:13:55
183 Altale [Heavy] 914,360 1,209 - 32 - 8 - 11 - 21 244 2020-06-10 07:12:14
869 Seedy Try 226,060 202 - 8 - 2 - 1 - 2 113 2020-06-10 07:09:06
841 Ofcourse you Need and nEed and neEd and neeD and NEED ME? 1,182,980 1,741 - 83 - 5 - 27 - 15 211 2020-06-09 07:36:14
2,351 Ofcourse you Need and nEed and neEd and neeD and NEED ME? 357,875 323 - 20 - 1 - 1 - 1 175 2020-06-09 07:32:37
3,380 Ofcourse you Need and nEed and neEd and neeD and NEED ME? 20,460 14 - 0 - 0 - 4 - 0 14 2020-06-09 07:31:59
1,114 Le carnaval des animaux, Movement no. 14 ''Finale" 110,270 98 - 32 - 10 - 6 - 6 49 2020-06-09 07:30:30
1,288 Le carnaval des animaux, Movement no. 14 ''Finale" 36,320 36 - 8 - 2 - 25 - 2 22 2020-06-09 07:29:58
1,310 Le carnaval des animaux, Movement no. 14 ''Finale" 7,130 6 - 0 - 0 - 7 - 0 6 2020-06-09 07:29:38
1,310 Le carnaval des animaux, Movement no. 14 ''Finale" 7,475 5 - 1 - 0 - 5 - 0 6 2020-06-09 07:28:54
1,280 Le carnaval des animaux, Movement no. 14 ''Finale" 54,325 38 - 21 - 4 - 21 - 3 34 2020-06-09 07:28:47
967 ETERNAL DRAIN 936,430 1,245 - 46 - 2 - 12 - 18 243 2020-06-09 07:27:52
2,011 Halcyon [xi] 1,087,605 989 - 108 - 11 - 17 - 19 519 2020-06-09 07:25:30
934 Animus Intorqueo No. 3 792,495 816 - 37 - 0 - 4 - 12 335 2020-06-09 07:22:52
1,846 Clockwork [MSI] 662,895 468 - 33 - 4 - 2 - 9 397 2020-06-07 23:09:22
632 Paraclete [Oni] 555,190 507 - 61 - 7 - 2 - 10 260 2020-05-24 11:38:28
960 Diamante Spectrasplosion 5,925 3 - 1 - 0 - 0 - 0 4 2020-05-24 11:36:21
3,123 11ELEVEN 409,960 399 - 22 - 0 - 8 - 3 187 2020-05-24 11:35:31
1,853 MANIERA 144,500 133 - 8 - 0 - 9 - 3 72 2020-05-24 11:34:30
2,146 MANIERA 4,080 2 - 2 - 0 - 5 - 1 4 2020-05-24 11:34:12
790 Aragami 421,955 469 - 73 - 2 - 16 - 11 149 2020-05-24 09:55:05
958 Een Lijden 435 0 - 0 - 1 - 2 - 0 1 2020-05-24 09:53:51
958 Een Lijden 1,550 1 - 0 - 0 - 0 - 0 1 2020-05-24 09:53:47
555 Een Lijden 890,520 820 - 119 - 1 - 10 - 8 410 2020-05-24 09:53:31
420 Paraclete [Oni] 1,331,450 1,481 - 280 - 12 - 16 - 40 445 2020-05-23 16:53:33
489 Pandemonium 1,208,975 1,406 - 123 - 10 - 20 - 25 408 2020-05-23 16:50:52
510 Rave 1 1,108,610 1,286 - 222 - 4 - 18 - 19 346 2020-05-23 16:46:31
518 Chronostasis 1,027,405 1,372 - 72 - 5 - 13 - 12 257 2020-05-23 16:43:19
250 Zephyros 1,117,280 1,351 - 120 - 10 - 22 - 25 348 2020-05-23 16:39:45
586 A FLOWER GARDEN 1,128,425 973 - 30 - 1 - 3 - 5 586 2020-05-23 16:35:32
824 Candy Crack Curtain Call 561,490 566 - 54 - 2 - 5 - 11 237 2020-05-23 16:33:07
1,101 Candy Crack Curtain Call 136,380 88 - 0 - 0 - 0 - 1 88 2020-05-23 16:32:03
813 Enkan No Kotowari 908,105 955 - 64 - 5 - 12 - 15 369 2020-05-17 12:54:07
2,450 All i wanna do is touch your powerpoints 599,020 673 - 52 - 4 - 11 - 12 218 2020-05-17 12:51:27
403 Exothermic (Overheat Remix) 748,070 715 - 47 - 1 - 6 - 15 344 2020-05-17 08:50:38
8,741 Big Blue 409,060 431 - 24 - 0 - 11 - 9 169 2020-05-17 08:42:41
388 13th, Friday 1,855,725 2,561 - 159 - 14 - 30 - 51 413 2020-05-17 08:41:17
1,285 Rarity Attempts 400 Dresses (LOOMING MIX) 281,840 237 - 28 - 2 - 4 - 4 145 2020-05-17 08:34:48
780 Ringo's Tea Party 292,490 228 - 10 - 0 - 2 - 2 165 2020-05-17 08:33:57
906 Ofcourse you Need and nEed and neEd and neeD and NEED ME? 1,219,765 1,705 - 121 - 4 - 26 - 21 257 2020-05-17 08:26:44
1,161 Resurrection Spell 312,725 298 - 15 - 0 - 4 - 3 146 2020-05-17 08:22:47
740 Arcanum Guardian 200,455 183 - 6 - 3 - 3 - 4 99 2020-05-17 08:18:48
1,758 Press Start 130,895 98 - 7 - 0 - 3 - 0 76 2020-05-17 08:18:07
976 Candy Crack Curtain Call 304,120 253 - 12 - 2 - 4 - 10 163 2020-05-17 08:17:14
3,212 11ELEVEN 374,715 372 - 24 - 1 - 8 - 3 166 2020-05-17 08:15:47
582 Fukyouwa Astral Kai 618,445 377 - 27 - 0 - 1 - 1 404 2020-05-17 08:14:18
86 ENERGY SYNERGY MATRIX 980,235 1,063 - 79 - 4 - 10 - 13 377 2020-05-15 11:32:27
4,380 3020 852,520 934 - 59 - 5 - 8 - 10 325 2020-05-15 11:30:36
4,457 Setsujou! Hyakka Ryouran! 1,027,605 1,023 - 58 - 5 - 9 - 24 452 2020-05-15 11:27:10
94 echoes of wind 443,425 365 - 23 - 0 - 5 - 5 238 2020-05-15 11:25:10
534 Witchcraft 860,970 916 - 30 - 2 - 3 - 13 350 2020-05-15 11:23:42
1,289 May The Triforce Be With You 991,515 737 - 64 - 1 - 7 - 16 571 2020-05-15 11:21:12
206 Before Cynthia 723,555 937 - 106 - 3 - 35 - 13 190 2020-05-15 11:19:34
1,030 Rampage 160,510 119 - 5 - 1 - 1 - 3 94 2020-05-15 11:17:45
3,456 Ambient Angels 596,550 514 - 13 - 1 - 2 - 8 311 2020-05-15 11:16:05
7,398 Black Key Etude 332,400 240 - 22 - 0 - 5 - 5 196 2020-05-15 11:14:30
1,206 Cloud Nine 1,054,280 840 - 39 - 5 - 8 - 12 584 2020-05-15 11:13:44
361 Lust for Blood 840,470 533 - 14 - 2 - 8 - 8 546 2020-05-15 11:08:24
641 A FLOWER GARDEN 1,013,210 963 - 40 - 0 - 4 - 10 474 2020-05-14 11:27:13
345 ORIENTAL SEA!! 1,220,280 1,151 - 39 - 3 - 4 - 21 578 2020-05-14 11:23:00
77 !!!Chaos Time!!! [Cut Edition] 803,435 1,072 - 377 - 18 - 137 - 68 153 2020-05-14 11:19:28
1,143 All i wanna do is touch your powerpoints 1,227,930 1,306 - 87 - 1 - 23 - 11 493 2020-05-14 10:14:54
1,470 -+ 257,155 173 - 13 - 2 - 2 - 3 159 2020-05-14 10:12:07
3,359 4 Chord Touhou 1,166,745 1,286 - 62 - 5 - 8 - 20 445 2020-05-14 10:08:34
765 Le carnaval des animaux, Movement no. 14 ''Finale" 473,320 497 - 93 - 5 - 12 - 8 178 2020-05-14 10:06:04
367 Shin sekai 1,588,330 2,083 - 97 - 15 - 12 - 55 420 2020-05-14 10:03:28
723 Beautiful Arrhythmia 615,715 719 - 35 - 4 - 14 - 12 215 2020-05-14 09:59:42
882 Ofcourse you Need and nEed and neEd and neeD and NEED ME? 1,237,770 1,708 - 121 - 5 - 22 - 18 272 2020-05-14 09:57:05
977 Yaunryu ~Yamikaze~ 1,754,045 1,964 - 98 - 5 - 16 - 21 652 2020-05-14 09:53:42
837 Een Lijden 439,275 447 - 39 - 0 - 4 - 3 184 2020-05-14 09:49:32
1,230 Electric Butterfly 858,905 516 - 44 - 3 - 0 - 8 563 2020-05-14 09:47:51
1,209 Eclipse (Luna) 158,410 96 - 7 - 1 - 1 - 3 104 2020-05-14 09:46:50
2,220 Gunkienen Tarusuigin 146,035 143 - 35 - 0 - 4 - 0 59 2020-05-14 09:45:57
756 Destination Of The Heart 792,675 924 - 61 - 2 - 7 - 12 270 2020-05-13 08:56:59
2,184 Time to Eye 367,555 445 - 56 - 3 - 18 - 9 113 2020-05-13 08:55:02
895 Ofcourse you Need and nEed and neEd and neeD and NEED ME? 1,143,650 1,715 - 106 - 4 - 31 - 18 181 2020-05-13 08:52:46
294 Aleph-0 606,480 736 - 38 - 4 - 9 - 10 194 2020-05-13 08:49:16
580 Paraclete [Heavy] 1,095,145 1,355 - 122 - 11 - 12 - 27 320 2020-05-13 08:47:14
535 Chronostasis 1,301,350 1,380 - 53 - 9 - 20 - 26 534 2020-05-13 08:43:38
484 Zephyros 451,340 434 - 35 - 1 - 6 - 9 205 2020-05-13 08:40:54
234 Agartha 1,089,835 1,409 - 72 - 3 - 12 - 18 299 2020-05-13 08:38:09
2,051 Aim Burst 845,640 934 - 67 - 3 - 11 - 12 317 2020-05-13 08:34:04
781 Arianrhod 702,485 538 - 48 - 1 - 5 - 6 395 2020-05-13 08:32:18
667 Calamity Fortune 1,247,740 1,456 - 111 - 5 - 14 - 26 421 2020-05-13 08:30:12
576 Resurrection Spell 1,077,910 1,429 - 107 - 9 - 18 - 19 268 2020-05-13 08:27:10
121 Hope 4 Hopeful 764,130 796 - 63 - 1 - 9 - 13 312 2020-05-13 08:23:47
570 Felix^3 800,395 960 - 72 - 5 - 14 - 17 257 2020-05-13 08:22:00
438 Death Moon 1,222,370 1,614 - 176 - 8 - 25 - 21 294 2020-05-13 08:19:21
556 Connect (HOUSE SOUL REMIX) [FC] 1,270,500 810 - 11 - 1 - 0 - 4 822 2020-05-13 08:14:21
2,384 Crystal Wind 706,625 719 - 38 - 3 - 4 - 10 302 2020-05-13 08:09:50
11,257 Crystal Wind 19,220 13 - 0 - 0 - 3 - 0 13 2020-05-13 08:08:15
196 Swamp Thing 248,645 184 - 15 - 0 - 2 - 3 144 2020-05-12 17:44:26
436 Cirno's Perfect Math Class 1,254,970 1,216 - 19 - 1 - 3 - 9 582 2020-05-12 08:14:26
61 Edible Flower Monologue 1,564,125 1,197 - 39 - 0 - 5 - 20 897 2020-05-12 08:11:23
1,699 Pwntendo 906,010 1,091 - 42 - 0 - 11 - 9 298 2020-05-12 08:07:17
594 R/\IN 1,071,290 711 - 6 - 0 - 1 - 5 679 2020-05-12 07:59:21
366 Indignant Divinity 803,890 609 - 8 - 2 - 1 - 3 467 2020-05-12 07:56:28
218 L 479,045 443 - 35 - 4 - 7 - 14 228 2020-05-12 07:54:41
12,405 Exciting Hyper Highspeed Star 568,880 538 - 49 - 3 - 8 - 9 262 2020-05-12 07:53:11
233 Nekuro no Makkuro Kuro Majutsu 1,808,485 2,342 - 64 - 11 - 20 - 31 509 2020-05-12 07:17:37
374 Zauberkugel 1,013,150 1,311 - 70 - 4 - 13 - 17 277 2020-05-12 07:12:59
1,036 Etude Op. 10, No. 9 in F minor 1,122,960 973 - 44 - 0 - 7 - 6 578 2020-05-12 07:09:49
135 Celestial Horizon v2 1,246,025 1,268 - 68 - 7 - 10 - 18 533 2020-05-12 07:05:58
565 Crystal Chamber Combustion (bike) 83,705 88 - 37 - 4 - 29 - 5 34 2020-05-12 07:02:56
602 Nightrain 772,290 824 - 26 - 0 - 6 - 10 314 2020-05-12 06:59:04
1,001 Fear Me (NGADm Entry) 722,610 822 - 19 - 1 - 5 - 11 267 2020-05-12 06:56:19
450 Fill Me Up With Snacky Happiness 978,380 844 - 2 - 0 - 1 - 3 514 2020-05-11 09:40:33
798 WHO GIVES A F*** [FC] 947,235 594 - 20 - 1 - 0 - 1 615 2020-05-11 09:37:20
1,654 State of Emergency 937,770 760 - 20 - 2 - 2 - 11 515 2020-05-11 09:35:30
637 Crimson Flood 1,025,785 1,028 - 22 - 1 - 2 - 5 455 2020-05-11 09:32:21
588 Cheat Codes [FC] 929,225 589 - 12 - 1 - 0 - 4 602 2020-05-11 09:28:44
1,985 {Big Boss} 540,480 575 - 14 - 2 - 5 - 9 222 2020-05-11 09:20:45
673 Macau Underground 1,268,110 1,130 - 85 - 5 - 8 - 28 626 2020-05-11 09:16:46
2,615 Aim Burst 382,365 338 - 22 - 3 - 5 - 10 192 2020-05-11 09:14:21
6,591 LITTLE GOD CH@NNEL 471,180 285 - 21 - 3 - 1 - 10 309 2020-05-11 09:12:52
1,664 Pretty Green Onions 1,704,250 1,571 - 26 - 4 - 3 - 12 834 2020-05-11 09:06:49
954 Infinity [cosMo] 534,085 578 - 72 - 7 - 12 - 14 200 2020-05-09 11:47:03
787 Ringo's Tea Party 229,770 215 - 8 - 0 - 2 - 3 110 2020-05-09 11:45:36
732 Thunder Light 598,310 368 - 22 - 0 - 0 - 7 390 2020-05-09 11:44:24
1,306 Le carnaval des animaux, Movement no. 14 ''Finale" 6,465 2 - 1 - 2 - 0 - 1 5 2020-05-09 11:42:46
1,110 Le carnaval des animaux, Movement no. 14 ''Finale" 109,355 89 - 48 - 5 - 3 - 7 48 2020-05-09 11:42:37
1,113 Le carnaval des animaux, Movement no. 14 ''Finale" 84,980 89 - 48 - 0 - 7 - 0 25 2020-05-09 11:42:20
941 Ofcourse you Need and nEed and neEd and neeD and NEED ME? 1,156,740 1,679 - 145 - 11 - 21 - 34 200 2020-05-09 11:34:17
419 Seedy Try 729,665 979 - 81 - 8 - 16 - 27 174 2020-05-09 11:30:14
605 Connect (HOUSE SOUL REMIX) 1,201,425 808 - 12 - 1 - 1 - 1 754 2020-05-09 11:27:30
572 Spider Dance 1,268,040 922 - 28 - 0 - 2 - 7 754 2020-05-09 11:23:02
914 Crimson Flood 1,043,575 1,003 - 42 - 3 - 5 - 12 482 2020-05-09 11:18:29
1,954 Aishiteru Yo Ne 187,395 148 - 7 - 0 - 3 - 0 105 2020-05-09 07:57:59
346 Before Cynthia 382,750 416 - 70 - 0 - 20 - 5 141 2020-05-09 07:57:14
957 Rampage 211,680 213 - 16 - 4 - 3 - 8 91 2020-05-08 19:27:43
1,035 Endgame 120,495 97 - 10 - 1 - 2 - 2 65 2020-05-08 19:26:31
1,077 R2 55,645 34 - 2 - 1 - 2 - 2 37 2020-05-08 19:25:52
1,130 R2 18,670 11 - 2 - 0 - 3 - 0 13 2020-05-08 19:25:42
1,154 R2 1,000 0 - 2 - 0 - 5 - 0 2 2020-05-08 19:25:25
1,325 DESTINY [orgt] 158,945 136 - 9 - 0 - 1 - 1 82 2020-05-08 19:24:28
266 Poison AND/OR Affection 330,545 203 - 13 - 0 - 2 - 3 216 2020-05-08 12:23:21
2,164 HAELEQUIN 4,650 3 - 0 - 0 - 0 - 0 3 2020-05-08 12:02:22
1,989 HAELEQUIN 289,830 187 - 0 - 0 - 0 - 1 187 2020-05-08 12:00:04
2,169 HAELEQUIN 2,480 3 - 0 - 0 - 7 - 0 3 2020-05-08 11:59:30
2,134 HAELEQUIN 48,050 31 - 0 - 0 - 0 - 0 31 2020-05-08 11:58:30
1,019 HAELEQUIN 1,566,170 1,351 - 79 - 13 - 16 - 18 806 2020-05-08 11:55:20
873 Epilogue 795,660 899 - 44 - 4 - 5 - 28 291 2020-05-08 11:52:09
3,064 Epilogue 7,750 5 - 0 - 0 - 0 - 0 5 2020-05-08 11:50:26
2,928 Epilogue 121,405 84 - 3 - 0 - 2 - 0 75 2020-05-08 11:50:20
3,063 Epilogue 10,025 4 - 3 - 0 - 0 - 0 7 2020-05-08 11:50:04
2,930 Epilogue 120,765 84 - 3 - 0 - 4 - 1 75 2020-05-08 11:49:47
3,064 Epilogue 7,750 5 - 0 - 0 - 0 - 0 5 2020-05-08 11:49:33
947 ETERNAL DRAIN 1,790,005 1,234 - 64 - 3 - 4 - 11 1,095 2020-05-08 11:48:31
135 Pretty Girls With Mental Disorders 643,295 445 - 14 - 3 - 1 - 8 395 2020-05-08 11:46:03
860 Pandemonium 768,035 750 - 72 - 9 - 8 - 14 338 2020-05-08 11:44:23
1,351 All i wanna do is touch your powerpoints 1,046,135 1,278 - 101 - 4 - 34 - 11 326 2020-05-08 11:37:57
220 Celestial Horizon v2 509,265 517 - 16 - 3 - 5 - 5 222 2020-05-08 11:33:44
292 Celestial Horizon v2 103,300 65 - 2 - 0 - 0 - 0 67 2020-05-08 11:30:45
295 Celestial Horizon v2 17,975 11 - 1 - 0 - 1 - 2 12 2020-05-08 11:27:50
242 Celestial Horizon v2 370,650 341 - 4 - 2 - 3 - 9 183 2020-05-08 11:26:46
1,488 Demon Beast Appearance 386,030 270 - 18 - 2 - 1 - 11 233 2020-05-08 11:25:49
1,823 Demon Beast Appearance 86,470 56 - 3 - 1 - 7 - 2 57 2020-05-08 11:25:16
1,846 Demon Beast Appearance 66,630 43 - 0 - 0 - 0 - 1 43 2020-05-08 11:25:03
1,908 Demon Beast Appearance 18,600 12 - 0 - 0 - 0 - 0 12 2020-05-08 11:24:52
327 Lust for Blood 987,390 892 - 27 - 7 - 2 - 20 490 2020-05-08 11:24:23
1,604 Intersect Thunderbolt 335,065 349 - 16 - 3 - 7 - 14 141 2020-05-08 11:22:27
840 Euphoric Field (Final Shaft Remix) 700,000 637 - 44 - 2 - 4 - 16 339 2020-05-08 11:20:51
96 Mongoloid Alien 1,106,935 1,435 - 108 - 7 - 20 - 60 295 2020-05-08 11:18:53
1,729 All i wanna do is touch your powerpoints 905,155 1,189 - 85 - 14 - 30 - 32 237 2020-05-08 11:15:15
3,727 All i wanna do is touch your powerpoints 36,890 27 - 0 - 0 - 16 - 0 27 2020-05-08 11:13:05
1,258 Cloud Nine 821,340 834 - 41 - 11 - 6 - 19 353 2020-05-08 11:12:05
138 Aleph-0 915,070 1,205 - 99 - 17 - 16 - 44 230 2020-05-06 06:04:59
1,043 L9 [FC] 1,664,705 1,062 - 13 - 2 - 0 - 4 1,077 2020-05-06 06:02:06
667 The Strategy of Emperor 977,145 954 - 60 - 7 - 6 - 29 438 2020-05-06 05:58:56
160 Dedication 1,767,650 1,290 - 68 - 10 - 4 - 43 1,041 2020-05-06 05:56:36
278 Aventyr 1,198,720 1,377 - 67 - 15 - 6 - 51 425 2020-05-06 05:50:34
691 Etude On A Nimbus 1,998,205 1,423 - 29 - 12 - 2 - 23 1,208 2020-05-06 05:47:25
452 Hatsune Miku no Gekishou 1,322,380 1,377 - 35 - 7 - 8 - 25 558 2020-05-06 05:42:47
788 EOS 1,083,210 1,242 - 37 - 1 - 6 - 13 392 2020-05-06 05:39:17
788 Lives Without Meaning 604,190 702 - 9 - 1 - 10 - 17 219 2020-05-06 05:35:11
802 Zauberkugel 427,890 366 - 18 - 2 - 1 - 8 222 2020-05-06 05:31:09
44 NEO GRAVITY (Cranky Remix) (-RS2018 edit-) 1,437,810 1,495 - 88 - 4 - 14 - 26 596 2020-05-06 05:28:28
671 Swaying Sunflowers 711,765 511 - 5 - 0 - 2 - 2 430 2020-05-06 05:24:59
3,488 Mario Mix for Piano 957,420 603 - 18 - 0 - 0 - 9 621 2020-05-06 05:23:01
795 Animus Intorqueo No. 3 849,865 824 - 31 - 0 - 2 - 12 389 2020-05-06 05:20:51
724 Animus Intorqueo No. 2 868,415 949 - 27 - 4 - 6 - 16 341 2020-05-06 05:18:27
716 Animus Intorqueo No. 1 699,635 599 - 14 - 1 - 2 - 5 367 2020-05-06 05:15:14
2,220 Etude On A Nimbus 495,595 428 - 17 - 4 - 2 - 4 256 2020-05-06 05:13:47
2,976 Etude On A Nimbus 142,030 90 - 2 - 0 - 0 - 1 92 2020-05-06 05:13:09
4,228 0 (piano version) 567,720 520 - 26 - 2 - 4 - 15 276 2020-05-06 05:11:55
975 Rocket Flight 496,505 522 - 27 - 2 - 3 - 10 203 2020-05-06 05:10:00
3,177 Rocket Flight 77,190 50 - 0 - 0 - 1 - 0 50 2020-05-06 05:08:56
3,226 Rocket Flight 28,845 18 - 1 - 0 - 1 - 1 19 2020-05-06 05:07:57
2,643 Rocket Flight 309,980 184 - 20 - 0 - 2 - 5 204 2020-05-06 05:07:35
14,225 Be Princess 373,565 234 - 8 - 1 - 1 - 4 243 2020-05-06 05:06:31
13,040 Cutting Circles 219,320 137 - 6 - 0 - 2 - 3 143 2020-05-06 05:05:39
2,696 Mozart on Crack 822,995 845 - 44 - 1 - 5 - 18 348 2020-04-28 20:29:44
2,256 Boot 172,450 122 - 7 - 1 - 5 - 4 105 2020-04-28 20:23:43
1,671 i wanna kiss the moon 133,345 90 - 15 - 0 - 4 - 2 81 2020-04-28 20:22:33
529 Nekuro no Makkuro Kuro Majutsu 606,405 580 - 47 - 4 - 8 - 13 277 2020-04-23 13:11:19
535 NEW ANACHRONISM -I can't become the hero anymore- 912,855 845 - 62 - 11 - 13 - 26 435 2020-04-23 13:09:01
287 Lust for Blood 1,311,925 1,171 - 38 - 5 - 7 - 34 660 2020-04-23 13:06:33
221 Celestial Horizon v2 481,905 403 - 25 - 0 - 8 - 7 256 2020-04-23 13:03:27
769 Crimson Flood 1,058,660 1,016 - 33 - 1 - 3 - 17 492 2020-04-23 13:00:47
543 Hatsune Miku no Gekishou 1,810,030 1,329 - 91 - 5 - 2 - 30 1,055 2020-04-23 12:56:49
158 Illusions of Magic 303,290 247 - 10 - 2 - 4 - 9 166 2020-04-23 12:53:46
1,267 Punch You 632,725 437 - 48 - 3 - 9 - 10 382 2020-04-23 12:52:10
1,469 -+ 274,735 159 - 22 - 1 - 2 - 10 182 2020-04-23 12:50:34
1,068 Cloud Nine 1,077,795 856 - 21 - 6 - 9 - 16 604 2020-04-23 12:45:12
2,356 ETERNAL DRAIN 206,535 145 - 4 - 1 - 1 - 3 126 2020-04-23 12:43:10
104 Edible Flower Monologue 766,085 674 - 21 - 2 - 4 - 13 391 2020-04-23 12:41:49
989 Laplace 659,615 484 - 18 - 3 - 4 - 23 390 2020-04-23 12:39:15
700 Holy Winter 1,542,995 1,424 - 58 - 7 - 12 - 41 748 2020-04-23 12:37:48
1,962 Holy Winter 6,200 4 - 0 - 0 - 0 - 0 4 2020-04-23 12:34:06
1,906 Holy Winter 149,710 97 - 0 - 0 - 2 - 1 97 2020-04-23 12:33:38
6,214 L9 547,465 335 - 23 - 0 - 3 - 9 358 2020-04-23 12:32:40
15,162 Be Princess 296,095 181 - 13 - 0 - 3 - 5 194 2020-04-23 12:31:50
1,153 Pandemonium 245,565 196 - 18 - 5 - 4 - 11 134 2020-04-15 11:13:56
249 endleSSStation 76,020 46 - 7 - 1 - 4 - 1 50 2020-04-15 11:12:51
15 Star Gate 291,855 283 - 40 - 3 - 12 - 12 129 2020-04-15 11:12:25
1,608 Spider Dance 451,190 403 - 14 - 4 - 1 - 11 226 2020-04-15 11:10:59
425 Before Cynthia 127,450 97 - 16 - 0 - 4 - 3 71 2020-04-15 11:09:35
2,090 ETERNAL DRAIN 611,085 384 - 12 - 1 - 1 - 8 397 2020-04-15 11:09:01
1,413 Determination 833,505 634 - 31 - 4 - 2 - 16 477 2020-04-15 11:07:53
1,941 Determination 119,015 77 - 7 - 0 - 4 - 1 76 2020-04-15 11:06:38
1,085 Spear of Justice 609,325 499 - 37 - 4 - 4 - 14 326 2020-04-10 18:09:54
1,561 Rainbow Tylenol 877,545 821 - 77 - 2 - 3 - 18 406 2020-04-10 18:04:25
1,543 Try To Star 253,320 244 - 20 - 0 - 4 - 7 115 2020-04-10 18:02:03
1,540 Prismatic Lollipops 372,540 305 - 49 - 1 - 2 - 6 192 2020-04-10 18:00:21
3,352 Scars Left By Time 73,225 45 - 3 - 0 - 1 - 2 48 2020-04-10 17:59:16
2,499 Revolutionary Etude v2 985,900 995 - 112 - 6 - 6 - 31 410 2020-04-10 17:57:49
1,558 B.B.K.K.B.K.K. 389,085 398 - 36 - 1 - 5 - 11 162 2020-04-10 17:54:57
1,169 Witchcraft 561,170 512 - 59 - 1 - 5 - 8 265 2020-04-10 17:53:04
582 The Fated Hour 2,810 2 - 1 - 1 - 2 - 0 2 2020-04-10 17:51:53
937 Felix^3 727,065 439 - 81 - 4 - 2 - 13 464 2020-04-10 17:50:45
165 Mongoloid Alien 186,070 144 - 19 - 1 - 1 - 5 102 2020-04-10 17:49:17
198 Celestial Horizon v2 568,830 464 - 40 - 2 - 4 - 12 304 2020-04-10 17:47:58
263 Celestial Horizon v2 14,260 10 - 0 - 0 - 4 - 0 10 2020-04-10 17:46:56
1,589 Futsuu No Uta 372,640 293 - 21 - 1 - 4 - 5 207 2020-04-10 17:46:17
450 Dedication 377,135 298 - 25 - 0 - 4 - 20 208 2020-04-03 20:40:00
1,052 ETERNAL DRAIN 1,164,370 1,214 - 69 - 15 - 7 - 48 480 2020-04-02 23:58:54
514 Hatsune Miku no Gekishou 1,204,975 1,345 - 70 - 7 - 5 - 43 448 2020-04-02 23:55:58
767 Etude On A Nimbus 1,330,595 1,404 - 49 - 10 - 3 - 35 546 2020-04-02 23:52:33
863 reveal yourself 1,185,240 1,031 - 40 - 4 - 5 - 24 609 2020-04-02 23:49:28
1,027 Try This 109,785 61 - 8 - 7 - 1 - 2 74 2020-04-02 23:47:11
11,569 Legend 661,560 498 - 24 - 0 - 2 - 16 382 2020-04-02 23:46:23
9,270 Fuji-san 108,660 83 - 6 - 0 - 2 - 1 62 2020-03-29 08:38:25
2,168 In Flux (5 Note Piano Prelude) 747,010 615 - 48 - 8 - 6 - 51 398 2020-03-29 08:37:57
1,024 KISS CANDY FLAVOR [Heavy] 442,090 269 - 19 - 1 - 0 - 7 289 2020-03-29 08:36:19
2,510 Caprice for Violin in B minor Theme and Variations 1,041,155 994 - 92 - 7 - 15 - 29 474 2020-03-29 08:35:25
3,281 Addict 12,400 8 - 0 - 0 - 0 - 0 8 2020-03-29 08:31:59
2,861 Addict 368,400 223 - 18 - 0 - 0 - 10 241 2020-03-29 08:30:51
3,789 A World Of Piano 1,154,165 1,268 - 76 - 3 - 6 - 22 438 2020-03-28 21:05:27
1,948 Overdrive [Aaron Musslewhite] 59,315 36 - 3 - 0 - 1 - 0 39 2020-03-28 21:00:46
2,314 Cheat Codes 340,950 255 - 6 - 0 - 3 - 1 200 2020-03-28 20:59:50
2,167 ETERNAL DRAIN 376,575 299 - 9 - 0 - 1 - 2 210 2020-03-28 20:38:03
2,923 Crimson Flood 32,220 21 - 0 - 0 - 1 - 1 21 2020-03-28 20:36:38
422 Before Cynthia 20,445 21 - 3 - 0 - 3 - 0 9 2020-03-28 20:36:14
1,803 Tachyon 7,110 5 - 0 - 0 - 2 - 1 5 2020-03-28 20:35:29
20,317 Air 344,630 282 - 13 - 7 - 1 - 6 186 2020-03-28 20:34:51
5,697 Witches Hat 51,435 37 - 3 - 0 - 12 - 1 34 2020-03-28 20:33:57
3,464 Revolutionary Etude v2 326,880 268 - 8 - 0 - 2 - 5 178 2020-03-28 20:33:10
4,000 The Final Hour 10,850 7 - 0 - 0 - 0 - 0 7 2020-03-28 20:32:17
562 Dedication 109,920 72 - 0 - 0 - 2 - 3 71 2020-03-28 20:31:22
1,403 Kaze no Tou 34,860 21 - 1 - 1 - 0 - 1 23 2020-03-28 20:30:08
292 Gate Openerz 294,260 278 - 29 - 1 - 5 - 6 135 2020-03-28 20:28:42
169 Tool-Assisted Speedcore (TQBF Frame Advance RMX) 278,155 254 - 16 - 1 - 6 - 7 136 2020-03-28 20:12:15
1,887 Bloody Tears 527,280 329 - 12 - 2 - 0 - 4 343 2020-03-28 20:10:32
1,180 Felix^3 174,715 148 - 7 - 0 - 21 - 5 98 2020-03-28 20:08:21
5,931 CRASH the BEAT! 715,115 472 - 3 - 0 - 1 - 0 455 2020-03-28 20:06:39
7,672 CRASH the BEAT! 143,875 92 - 1 - 0 - 0 - 0 93 2020-03-28 20:05:11
1,938 Holy Winter 9,025 6 - 1 - 0 - 5 - 0 7 2020-03-28 20:03:54
562 Hatsune Miku no Gekishou 1,296,375 1,311 - 108 - 5 - 3 - 36 547 2020-03-28 20:00:26
3,549 Speedcore Sunday 1,164,495 909 - 57 - 0 - 3 - 10 650 2020-03-28 19:57:05
399 Before Cynthia 114,875 74 - 15 - 0 - 3 - 1 71 2020-03-28 19:54:51
2,895 Caixa D'Aqua 327,405 209 - 3 - 0 - 1 - 3 212 2020-03-28 19:54:22
2,031 Aishiteru Yo Ne 134,880 88 - 4 - 0 - 2 - 0 86 2020-03-28 19:52:38
5,098 Witches Hat 294,235 178 - 13 - 2 - 1 - 2 193 2020-03-26 12:52:07
1,707 World Revolution 326,095 293 - 23 - 0 - 4 - 7 160 2020-03-26 12:38:21
1,231 Revolutionary Etude v2 1,199,145 1,392 - 89 - 6 - 8 - 39 412 2020-03-26 12:37:10
814 Noushou Sakuretsu Girl 1,180,650 736 - 30 - 2 - 1 - 10 768 2020-03-26 12:34:07
565 Holy Winter 1,377,230 1,439 - 59 - 3 - 7 - 22 572 2020-03-26 12:31:44
1,333 Zeitmesser 50,215 34 - 3 - 0 - 1 - 0 31 2020-03-26 12:27:45
2,622 The Final Conflict 1,099,035 960 - 45 - 2 - 3 - 26 560 2020-03-26 12:27:02
1,331 Tachyon 592,965 375 - 13 - 0 - 2 - 12 384 2020-03-26 12:22:25
101 Edible Flower Monologue 445,230 276 - 13 - 1 - 0 - 10 290 2020-03-26 12:20:54
311 Altale [Heavy] 535,930 483 - 30 - 4 - 3 - 13 263 2020-03-26 12:19:53
2,419 Makiba 62,840 36 - 5 - 1 - 1 - 4 42 2020-03-26 12:18:34
2,239 to the Heaven -Driven Beat Remix- 588,585 366 - 19 - 0 - 2 - 16 383 2020-03-26 12:17:59
1,650 Cirno's Perfect Math Class 813,085 498 - 32 - 1 - 1 - 18 531 2020-03-26 12:16:12
2,238 Cirno's Perfect Math Class 6,200 4 - 0 - 0 - 0 - 0 4 2020-03-26 12:15:13
669 Spider Dance 1,263,285 908 - 40 - 1 - 3 - 12 754 2020-03-26 12:14:04
942 EOS 1,617,830 1,209 - 70 - 4 - 3 - 33 935 2020-03-26 12:11:21
709 Connect (HOUSE SOUL REMIX) 996,020 803 - 16 - 0 - 3 - 5 551 2020-03-26 12:07:49
2,490 Captain Murasa's Ass Anchor 498,985 300 - 26 - 1 - 0 - 11 327 2020-03-26 12:05:32
2,712 Aim Burst 432,375 258 - 23 - 4 - 3 - 7 285 2020-03-26 12:04:23
9,495 Kamonene 100% 8,990 6 - 0 - 0 - 1 - 0 6 2020-03-26 12:03:18
2,105 Crimson Flood 556,980 433 - 42 - 4 - 2 - 16 308 2020-03-26 12:02:31
2,560 Epilogue 305,670 242 - 25 - 1 - 4 - 6 167 2020-03-26 12:00:56
2,161 In Flux (5 Note Piano Prelude) 707,690 616 - 65 - 7 - 5 - 41 353 2020-03-26 12:00:01
2,182 Etude On A Nimbus 592,070 450 - 49 - 1 - 2 - 17 332 2020-03-26 11:58:09
3,194 Etude On A Nimbus 34,390 23 - 0 - 0 - 4 - 1 23 2020-03-26 11:57:10
2,251 Etude On A Nimbus 577,100 345 - 33 - 1 - 2 - 8 379 2020-03-26 11:57:00
4,414 Prism 4,340 3 - 0 - 0 - 1 - 0 3 2020-03-26 11:56:03
1,982 A World Of Piano 1,148,585 1,365 - 67 - 2 - 10 - 30 383 2020-03-26 11:55:19
13,317 A World Of Piano 4,065 2 - 1 - 0 - 1 - 0 3 2020-03-26 11:50:51
3,022 Infinite Blue 645,790 602 - 24 - 0 - 5 - 18 310 2020-03-16 07:58:22
11,241 {I Don't Need You Anymore} 137,670 79 - 12 - 0 - 0 - 4 91 2020-03-16 07:56:25
533 Zephyros 243,020 203 - 44 - 4 - 9 - 8 122 2020-03-16 07:14:37
1,104 (The title is) TOO LONG to write here. 450,590 504 - 43 - 1 - 7 - 16 164 2020-03-16 07:13:50
669 La fuite des jours "Piano solo" 1,030,575 1,168 - 72 - 9 - 8 - 32 371 2020-03-16 07:12:27
1,715 La fuite des jours "Piano solo" 14,765 12 - 4 - 3 - 6 - 12 9 2020-03-16 07:09:39
1,725 La fuite des jours "Piano solo" 5,605 3 - 1 - 2 - 1 - 6 4 2020-03-16 07:09:26
1,652 ecstatic ghost party as Nightmare 570,170 552 - 44 - 2 - 4 - 20 256 2020-03-16 07:08:54
2,813 Rainbow Tylenol 786,220 538 - 40 - 4 - 2 - 14 480 2020-03-16 07:07:22
5,099 Fantranstic 751,365 834 - 64 - 1 - 5 - 22 277 2020-03-16 07:05:35
14,319 Be Princess 361,500 219 - 24 - 0 - 11 - 7 238 2020-03-16 07:03:23
22,235 Be Princess 20,565 11 - 3 - 0 - 1 - 0 14 2020-03-16 07:02:45
22,654 Be Princess 14,895 9 - 1 - 0 - 1 - 1 10 2020-03-16 07:02:37
893 Paraclete [Heavy] 859,060 752 - 119 - 15 - 11 - 34 416 2020-03-09 01:12:12
2,501 Divinity 872,885 969 - 31 - 4 - 5 - 13 333 2020-03-09 01:10:08
8,205 AAA 689,680 868 - 148 - 6 - 15 - 55 177 2020-03-09 01:07:18
249 Before Cynthia 429,020 494 - 108 - 6 - 29 - 36 137 2020-03-09 01:04:54
2,199 Crimson Flood 481,660 362 - 14 - 4 - 7 - 17 281 2020-03-09 01:03:27
687 Colors of the Wind 986,330 823 - 32 - 2 - 3 - 15 526 2020-03-09 01:02:10
1,346 Waterfall 800,240 1,023 - 90 - 0 - 20 - 48 220 2020-03-09 00:59:34
959 In Flux (5 Note Piano Prelude) 983,375 1,255 - 143 - 12 - 12 - 57 258 2020-03-09 00:57:04
3,531 Prism 239,385 265 - 25 - 2 - 7 - 9 89 2020-03-09 00:53:54
1,550 Death Moon 306,580 358 - 41 - 1 - 11 - 12 102 2020-03-08 05:54:05
124 Mongoloid Alien 418,845 471 - 32 - 5 - 6 - 21 153 2020-03-08 05:52:48
639 Suicide Pact 522,055 550 - 93 - 8 - 12 - 37 198 2020-03-08 05:51:27
1,604 EOS 800,335 836 - 71 - 4 - 9 - 21 324 2020-03-08 05:49:55
2,196 EOS 11,850 6 - 2 - 0 - 0 - 0 8 2020-03-08 05:47:12
2,201 EOS 7,440 5 - 0 - 0 - 1 - 0 5 2020-03-08 05:47:06
2,195 EOS 12,125 7 - 1 - 0 - 0 - 0 8 2020-03-08 05:47:00
5,986 Winter Wind Etude 127,415 131 - 42 - 7 - 7 - 20 46 2020-03-08 01:31:34
837 Chronostasis 723,515 619 - 38 - 3 - 7 - 19 375 2020-03-08 01:22:29
1,605 Intersect Thunderbolt 288,750 320 - 18 - 2 - 7 - 7 110 2020-03-08 01:20:33
2,430 300 1,095,810 1,047 - 56 - 4 - 6 - 40 507 2020-03-08 01:18:36
277 Altale [Heavy] 409,980 519 - 22 - 2 - 11 - 11 122 2020-03-08 01:15:53
2,789 Get Down 1,626,305 1,073 - 67 - 8 - 3 - 39 1,019 2020-03-08 01:12:56
2,045 L9 1,106,515 1,037 - 30 - 7 - 3 - 27 529 2020-03-08 01:09:32
8,961 L9 17,430 10 - 2 - 0 - 2 - 0 12 2020-03-08 01:06:51
482 PWRPFF RAVES 445,190 419 - 50 - 4 - 9 - 22 204 2020-03-05 23:00:28
1,215 Mozart on Crack 1,232,455 1,325 - 75 - 6 - 11 - 42 487 2020-03-05 22:59:08
774 Gangsters Paradise (Candyland's OG Remix) 996,370 853 - 67 - 1 - 8 - 39 512 2020-03-05 22:56:25
2,335 Cloud Nine 329,150 383 - 49 - 7 - 6 - 25 107 2020-03-05 22:51:13
1,797 ETERNAL DRAIN 890,470 617 - 74 - 6 - 6 - 35 533 2020-03-05 22:49:13
2,530 All i wanna do is touch your powerpoints 646,425 505 - 60 - 5 - 12 - 19 356 2020-03-05 21:37:01
129 Tool-Assisted Speedcore (TQBF Frame Advance RMX) 305,055 324 - 24 - 1 - 12 - 4 124 2020-03-05 21:35:51
145 Alien Lair 319,950 323 - 36 - 4 - 14 - 24 137 2020-03-05 21:34:21
586 Holy Winter 1,240,120 1,434 - 63 - 5 - 6 - 16 436 2020-03-05 21:33:10
733 In Flux (5 Note Piano Prelude) 1,461,950 1,320 - 84 - 6 - 12 - 38 717 2020-03-05 21:28:48
1,270 Sonata Pathetique - Mov. I 771,405 995 - 58 - 3 - 14 - 31 213 2020-03-05 21:25:29
3,189 Sonata Pathetique - Mov. I 73,750 41 - 8 - 0 - 0 - 0 49 2020-03-05 21:23:34
2,995 Nebula [she] 905,060 772 - 53 - 5 - 13 - 18 470 2020-03-02 03:31:33
1,544 Velaciela 126,475 120 - 12 - 3 - 3 - 3 58 2020-03-02 00:39:01
1,926 Overdrive [Aaron Musslewhite] 60,920 35 - 7 - 1 - 1 - 0 40 2020-03-02 00:37:54
1,554 Spider Dance 406,565 355 - 14 - 1 - 21 - 4 214 2020-03-02 00:37:09
1,959 Spider Dance 176,200 112 - 4 - 0 - 8 - 1 116 2020-03-02 00:35:02
2,022 Spider Dance 143,775 87 - 7 - 0 - 0 - 0 94 2020-03-02 00:34:12
666 Tachyon 789,050 967 - 90 - 8 - 11 - 29 236 2020-03-01 21:17:43
978 Piano Sonata No. 16 648,225 819 - 70 - 5 - 11 - 17 182 2020-03-01 21:15:34
13,887 Air 1,266,825 1,346 - 135 - 8 - 14 - 35 494 2020-03-01 21:13:27
1,246 Caprice for Violin in B minor Theme and Variations 1,117,415 1,366 - 95 - 14 - 16 - 41 345 2020-03-01 21:09:48
1,462 Fall Memories 574,395 559 - 34 - 1 - 4 - 11 259 2020-03-01 21:05:49
268 Gate Openerz 286,855 284 - 38 - 1 - 9 - 3 123 2020-02-29 22:33:38
295 Gate Openerz 6,200 4 - 0 - 0 - 0 - 0 4 2020-02-29 22:32:25
295 Gate Openerz 6,200 4 - 0 - 0 - 0 - 0 4 2020-02-29 22:32:19
7,283 L9 170,400 151 - 12 - 0 - 3 - 1 85 2020-02-29 22:31:30
1,366 KISS CANDY FLAVOR [Heavy] 35,320 23 - 0 - 0 - 1 - 1 23 2020-02-29 22:31:00
10,913 Degenerates 207,610 161 - 12 - 0 - 4 - 0 117 2020-02-29 22:30:45
4,788 Garyuutensei 614,935 721 - 58 - 3 - 11 - 16 206 2020-02-29 21:32:34
3,194 Ambient Angels 517,540 563 - 51 - 1 - 9 - 20 197 2020-02-29 21:30:29
4,309 Ambient Angels 51,105 29 - 4 - 1 - 0 - 0 34 2020-02-29 21:29:08
1,088 Addict 1,061,675 1,165 - 54 - 1 - 8 - 25 409 2020-02-29 21:28:34
1,140 Mozart on Crack 1,186,695 1,332 - 67 - 10 - 8 - 20 438 2020-02-29 21:25:20
80 POP/STARS 1,231,555 1,273 - 48 - 5 - 5 - 26 520 2020-02-29 21:22:12
2,925 In Flux (5 Note Piano Prelude) 27,505 20 - 6 - 3 - 1 - 0 15 2020-02-29 21:18:40
2,471 Etude On A Nimbus 225,680 246 - 15 - 3 - 9 - 6 89 2020-02-29 21:18:25
1,300 Prism 457,810 517 - 35 - 3 - 7 - 8 166 2020-02-29 21:17:46
4,350 Prism 30,725 19 - 1 - 0 - 0 - 0 20 2020-02-29 21:15:55
1,750 A World Of Piano 1,337,565 1,375 - 58 - 3 - 8 - 16 568 2020-02-29 21:15:27
1,218 Waltz In The Rain 810,535 772 - 26 - 1 - 3 - 17 380 2020-02-29 21:11:27
1,117 Sis Puella Magica 116,735 83 - 16 - 1 - 1 - 3 67 2020-02-29 21:09:17
1,210 Sis Puella Magica 4,650 3 - 0 - 0 - 0 - 0 3 2020-02-29 21:07:38
1,208 Sis Puella Magica 7,475 4 - 1 - 0 - 0 - 0 5 2020-02-29 21:07:30
1,119 Sis Puella Magica 78,760 86 - 4 - 0 - 2 - 1 31 2020-02-29 21:07:22
2,429 Animus Intorqueo No. 2 553,970 482 - 47 - 5 - 3 - 20 277 2020-02-29 21:06:31
2,839 Animus Intorqueo No. 1 458,065 412 - 27 - 4 - 6 - 16 226 2020-02-29 21:05:28
4,381 Animus Intorqueo No. 1 135,715 81 - 9 - 0 - 1 - 0 89 2020-02-29 21:04:15
4,405 Animus Intorqueo No. 1 111,500 67 - 6 - 0 - 0 - 0 73 2020-02-29 21:03:45
4,499 Animus Intorqueo No. 1 29,225 17 - 3 - 0 - 3 - 1 20 2020-02-29 21:03:31
3,445 Colors of the Wind 382,470 259 - 13 - 3 - 2 - 5 237 2020-02-29 21:03:16
3,814 Colors of the Wind 184,800 129 - 10 - 0 - 6 - 2 113 2020-02-29 21:02:27
905 Koi no Sakisaki Revolution desu yo 313,180 197 - 8 - 0 - 1 - 3 203 2020-02-29 21:01:25
904 Koi no Sakisaki Revolution desu yo 215,805 198 - 8 - 1 - 1 - 2 105 2020-02-28 20:32:30
1,062 Koi no Sakisaki Revolution desu yo 100,890 62 - 4 - 0 - 1 - 0 66 2020-02-28 19:38:11
5,511 Dazzling Soul 759,990 905 - 79 - 9 - 8 - 25 243 2020-02-28 15:44:12
17,439 Dazzling Soul 153,660 117 - 12 - 0 - 3 - 3 87 2020-02-28 15:42:15
14,549 Dazzling Soul 347,550 342 - 45 - 3 - 3 - 8 148 2020-02-28 15:41:58
4,495 Waltz In The Rain 469,680 489 - 38 - 2 - 5 - 14 192 2020-02-28 15:40:35
14,109 Duality 52,040 36 - 2 - 0 - 1 - 0 32 2020-02-28 15:39:05
1,516 Beatrice 291,765 262 - 19 - 4 - 2 - 8 143 2020-02-28 15:38:01
1,589 Beatrice 331,255 203 - 15 - 0 - 8 - 2 218 2020-02-28 15:35:38
148 Longinus 143,845 108 - 20 - 1 - 3 - 9 80 2020-02-28 15:34:07
1,046 Sis Puella Magica 198,130 207 - 4 - 0 - 2 - 10 84 2020-02-28 15:33:35
2,118 Crimson Flood 369,360 378 - 77 - 3 - 8 - 20 143 2020-02-28 13:57:48
2,896 Crimson Flood 4,650 3 - 0 - 0 - 0 - 0 3 2020-02-28 13:56:35
668 Holy Winter 1,250,095 1,417 - 76 - 3 - 12 - 30 454 2020-02-28 08:11:52
1,077 Phantasmagoria Mystical Adventure 619,345 607 - 50 - 1 - 7 - 7 274 2020-02-28 08:08:02
1,817 Cirno's Perfect Math Class 355,385 303 - 27 - 0 - 5 - 7 183 2020-02-28 08:06:29
2,196 Cirno's Perfect Math Class 12,850 5 - 4 - 0 - 0 - 0 9 2020-02-28 08:05:45
261 Gate Openerz 394,695 307 - 33 - 2 - 10 - 12 220 2020-02-28 08:05:25
1,539 Washamanoose's OP 1,045,655 1,136 - 65 - 0 - 8 - 27 406 2020-02-28 08:03:43
6,733 Washamanoose's OP 18,600 12 - 0 - 0 - 0 - 0 12 2020-02-28 08:01:01
6,545 Washamanoose's OP 51,150 33 - 0 - 0 - 0 - 0 33 2020-02-28 08:00:43
6,833 Washamanoose's OP 9,300 6 - 0 - 0 - 0 - 0 6 2020-02-28 08:00:32
6,791 Washamanoose's OP 10,090 8 - 0 - 0 - 1 - 0 6 2020-02-28 08:00:15
5,967 Washamanoose's OP 114,300 94 - 2 - 0 - 3 - 1 63 2020-02-28 08:00:00
2,465 L9 1,005,675 1,005 - 65 - 4 - 3 - 12 436 2020-02-28 07:58:50
2,513 LUV TO ME 2011 347,695 339 - 26 - 1 - 6 - 5 156 2020-02-28 07:56:34
2,988 I am Maid 776,975 884 - 57 - 4 - 12 - 20 279 2020-02-28 07:55:32
3,732 Hyper Pressure 1,100,425 1,050 - 55 - 0 - 6 - 17 510 2020-02-28 07:53:10
607 Railgun 767,275 864 - 50 - 1 - 11 - 16 282 2020-02-28 07:50:39
106 Tool-Assisted Speedcore (TQBF Frame Advance RMX) 305,890 325 - 23 - 7 - 11 - 8 124 2020-02-28 07:48:22
2,389 Addict 518,200 585 - 48 - 2 - 14 - 26 188 2020-02-28 07:47:13
2,335 Animus Intorqueo No. 2 545,865 517 - 66 - 3 - 8 - 16 246 2020-02-28 07:45:37
894 Kyomu no Kareha no Tsumugiuta 663,240 557 - 12 - 0 - 1 - 5 354 2020-02-28 07:41:20
1,740 Piano Sonata No. 16 617,330 616 - 68 - 4 - 7 - 11 262 2020-02-28 07:34:51
1,121 EOS 1,243,725 1,149 - 126 - 3 - 8 - 28 580 2020-02-28 07:33:21
21,871 Torinouta (The Speed Freak's Noise Rave Remix) 396,785 460 - 32 - 1 - 9 - 14 138 2020-02-28 07:30:39
73 Deadly Stealth 336,800 251 - 5 - 1 - 2 - 3 198 2020-02-28 07:28:58
5,488 Dazzling Soul 923,415 907 - 79 - 6 - 9 - 35 406 2020-02-28 07:27:47
911 Connect (HOUSE SOUL REMIX) 897,525 787 - 31 - 2 - 2 - 17 457 2020-02-28 07:25:25
13,432 Amefuri Koneko 123,325 74 - 6 - 1 - 0 - 4 81 2020-02-28 07:23:09
24,994 AAA 405,430 395 - 46 - 2 - 10 - 24 179 2020-02-28 07:22:46
10,961 The Prototype 360,570 214 - 35 - 1 - 5 - 13 235 2020-02-28 07:21:38
13,411 The Prototype 35,815 16 - 7 - 2 - 0 - 1 25 2020-02-28 07:20:45
13,747 The Prototype 1,240 1 - 0 - 0 - 1 - 0 1 2020-02-28 07:20:29
10,943 The Prototype 320,990 224 - 28 - 2 - 12 - 15 194 2020-02-28 07:20:05
965 NEXT STAGE!! 737,320 780 - 41 - 3 - 6 - 13 299 2020-02-28 07:18:45
1,454 Follow You (Rhythmics Remix) 640,455 461 - 35 - 2 - 5 - 14 379 2020-02-28 07:15:53
1,059 All is fair in Rage 721,370 590 - 76 - 0 - 9 - 12 379 2020-02-28 07:13:12
2,267 Lives Without Meaning 252,370 184 - 8 - 0 - 3 - 5 150 2020-02-27 21:49:12
577 Plousia 882,590 1,025 - 134 - 10 - 12 - 42 286 2020-02-27 21:47:10
618 La fuite des jours "Piano solo" 1,104,085 1,179 - 63 - 4 - 11 - 25 442 2020-02-27 21:44:03
1,977 Creative Happy 239,945 240 - 28 - 1 - 5 - 13 102 2020-02-27 21:40:47
2,463 Waterfall 224,935 197 - 15 - 2 - 5 - 5 114 2020-02-27 21:39:55
2,292 L9 1,166,310 1,022 - 46 - 2 - 7 - 19 594 2020-02-27 21:37:53
2,582 Kamonene 100% 832,955 996 - 74 - 1 - 11 - 42 269 2020-02-27 21:35:20
14,732 Flying High 202,470 135 - 2 - 0 - 1 - 1 128 2020-02-27 21:30:20
215 Lycanthrope 563,585 700 - 49 - 4 - 9 - 16 168 2020-02-27 21:28:56
1,322 Scavenger 635,200 661 - 69 - 3 - 7 - 16 255 2020-02-27 21:26:53
732 Sagano Rakuyou Emaki 875,715 850 - 33 - 4 - 6 - 11 401 2020-02-27 21:24:50
660 s.s.s.s. 465,860 481 - 18 - 4 - 2 - 12 197 2020-02-27 21:22:44
1,397 Rainbow Tylenol 762,830 839 - 57 - 3 - 4 - 11 287 2020-02-27 21:20:48
3,551 Rainbow Tylenol 35,065 22 - 1 - 0 - 1 - 0 23 2020-02-27 21:15:57
3,466 Forsaken Neon 549,325 601 - 40 - 5 - 4 - 13 209 2020-02-27 21:15:31
248 Eternal Excavation 919,365 1,108 - 30 - 3 - 7 - 14 304 2020-02-27 21:14:01
672 Cheat Codes 785,400 585 - 15 - 1 - 1 - 11 460 2020-02-27 21:10:11
2,922 Divinity 903,630 955 - 45 - 3 - 6 - 15 368 2020-02-27 21:07:33
336 Crystalline White 740,025 817 - 36 - 3 - 7 - 11 283 2020-02-27 21:04:45
2,530 Etude On A Nimbus 276,260 224 - 22 - 0 - 3 - 3 148 2020-02-27 21:01:38
1,097 Waltz In The Rain 846,035 776 - 23 - 0 - 3 - 8 414 2020-02-27 21:00:30
1,861 Holy Winter 173,830 109 - 3 - 1 - 0 - 0 113 2020-02-27 20:58:22
1,238 All Of Me 1,249,695 1,362 - 97 - 6 - 15 - 38 479 2020-02-27 20:56:54
2,134 Animus Intorqueo No. 1 499,480 481 - 59 - 3 - 6 - 30 221 2020-02-27 20:53:25
3,512 Animus Intorqueo No. 1 325,350 282 - 14 - 0 - 4 - 18 168 2020-02-27 17:29:07
5,054 Waltz In The Rain 463,925 365 - 25 - 2 - 5 - 13 258 2020-02-27 17:28:12
81 Edible Flower Monologue 161,225 140 - 14 - 1 - 2 - 3 81 2020-02-27 17:26:58
1,956 Waterfall 421,000 378 - 66 - 2 - 12 - 22 199 2020-02-26 22:32:02
1,570 EOS 989,990 892 - 75 - 3 - 6 - 27 481 2020-02-26 05:04:20
1,087 Koisuru VOC@LOID 1,089,810 1,224 - 47 - 5 - 7 - 21 406 2020-02-26 04:52:26
18,575 Force of Light 497,835 396 - 22 - 1 - 3 - 7 275 2020-02-24 13:28:08
652 Holy Winter 1,187,845 1,421 - 72 - 5 - 10 - 34 390 2020-02-23 17:18:37
736 Colors of the Wind 1,004,875 818 - 36 - 3 - 3 - 8 546 2020-02-23 17:14:23
1,562 In Flux (5 Note Piano Prelude) 1,091,685 1,077 - 123 - 14 - 6 - 70 468 2020-02-23 17:06:17
1,551 Animus Intorqueo No. 1 697,175 526 - 73 - 14 - 3 - 52 389 2020-02-23 17:03:35
3,515 Prism 286,805 266 - 25 - 2 - 4 - 12 135 2020-02-23 17:02:12
2,144 A World Of Piano 1,511,495 1,347 - 87 - 4 - 6 - 32 749 2020-02-23 17:00:45
1,127 X-Y-Z 698,270 733 - 62 - 4 - 5 - 30 280 2020-02-22 14:14:30
1,260 Rainbow Tylenol 958,470 849 - 48 - 4 - 2 - 14 479 2020-02-22 14:11:42
2,294 Toono Youkai Zensen 881,415 787 - 48 - 5 - 5 - 18 437 2020-02-22 14:09:15
624 Sleep Tight 869,255 844 - 39 - 2 - 4 - 27 396 2020-02-22 14:06:29
1,415 You will die 634,080 849 - 81 - 5 - 12 - 35 149 2020-02-22 14:03:52
931 Turn Around 664,050 571 - 50 - 0 - 5 - 10 338 2020-02-22 14:01:19
2,742 Waterfall 81,450 65 - 7 - 3 - 1 - 4 44 2020-02-22 13:59:27
2,305 Crimson Flood 302,935 260 - 25 - 2 - 3 - 6 154 2020-02-22 13:58:48
449 Dedication 306,260 272 - 25 - 1 - 3 - 17 151 2020-02-22 13:57:36
257 Before Cynthia 265,615 325 - 51 - 2 - 13 - 12 77 2020-02-22 13:56:14
1,153 Animus Intorqueo No. 1 734,470 556 - 56 - 2 - 2 - 11 414 2020-02-22 13:55:09
2,530 LUV TO ME 2011 395,240 324 - 22 - 0 - 3 - 4 212 2020-02-22 13:53:27
1,309 Follow You (Rhythmics Remix) 615,270 564 - 56 - 0 - 3 - 20 291 2020-02-22 13:52:23
1,916 Follow You (Rhythmics Remix) 33,000 18 - 4 - 0 - 0 - 0 22 2020-02-22 13:50:54
1,929 Follow You (Rhythmics Remix) 18,600 12 - 0 - 0 - 0 - 0 12 2020-02-22 13:50:42
1,961 Follow You (Rhythmics Remix) 2,550 0 - 2 - 0 - 0 - 0 2 2020-02-22 13:50:20
1,862 Follow You (Rhythmics Remix) 129,165 80 - 9 - 0 - 1 - 0 83 2020-02-22 13:50:11
708 Time To Sleep 177,300 101 - 17 - 1 - 6 - 6 119 2020-02-22 13:49:23
7,011 Get Down 710,120 865 - 84 - 14 - 8 - 51 214 2020-02-22 13:48:19
1,918 ETERNAL DRAIN 798,730 476 - 40 - 10 - 0 - 31 526 2020-02-22 13:45:28
3,508 Be Princess 937,425 833 - 67 - 2 - 4 - 51 463 2020-02-22 13:43:05
487 Dedication 208,660 194 - 30 - 14 - 2 - 72 95 2020-02-22 10:47:04
2,349 Epilogue 395,100 345 - 43 - 5 - 11 - 17 197 2020-02-22 10:45:59
1,058 Animus Intorqueo No. 3 911,940 801 - 52 - 2 - 2 - 20 458 2020-02-22 10:44:35
1,524 A World Of Piano 1,603,745 1,381 - 58 - 3 - 2 - 15 829 2020-02-22 10:41:52
1,761 FFR Evolution [FC] 1,181,400 751 - 12 - 2 - 0 - 3 765 2020-02-22 07:32:12
56 Tool-Assisted Speedcore (TQBF Frame Advance RMX) 295,755 322 - 34 - 3 - 12 - 7 113 2020-02-22 07:29:34
34 Edible Flower Monologue 844,315 1,079 - 128 - 9 - 25 - 54 224 2020-02-22 07:28:16
2,502 All i wanna do is touch your powerpoints 587,485 529 - 41 - 14 - 13 - 24 289 2020-02-22 07:25:51
4,408 0 (piano version) 513,060 441 - 39 - 5 - 7 - 16 262 2020-02-22 07:24:29
1,060 Etude On A Nimbus 1,144,345 1,307 - 128 - 13 - 18 - 42 396 2020-02-22 07:22:12
579 La fuite des jours "Piano solo" 1,027,385 1,186 - 58 - 1 - 12 - 10 363 2020-02-22 07:18:47
624 Holy Winter 1,321,945 1,432 - 57 - 8 - 11 - 18 522 2020-02-22 07:15:37
2,904 R176 735,475 921 - 60 - 7 - 10 - 43 216 2020-02-22 07:11:27
916 In Flux (5 Note Piano Prelude) 1,381,155 1,275 - 115 - 20 - 12 - 55 652 2020-02-22 07:08:58
1,525 Electronic Music Is A Joke 640,710 554 - 39 - 1 - 5 - 11 327 2020-02-22 07:05:38
856 Windy Valley (Genesis'd) 721,165 715 - 30 - 3 - 4 - 13 321 2020-02-22 07:03:28
3,241 Wild Sky [FC] 841,560 519 - 26 - 4 - 0 - 13 549 2020-02-22 07:01:29
1,052 EOS 1,427,325 1,174 - 105 - 4 - 3 - 27 754 2020-02-22 06:59:59
1,691 ETERNAL DRAIN 603,160 799 - 51 - 13 - 11 - 31 153 2020-02-22 06:56:17
1,052 Boot 822,875 997 - 136 - 15 - 18 - 56 243 2020-02-22 06:54:28
3,473 600 AD in Piano 976,020 946 - 42 - 0 - 5 - 14 446 2020-02-21 11:57:09
41,226 600 AD in Piano 21,075 11 - 5 - 0 - 1 - 2 14 2020-02-21 10:16:21
3,218 Animus Intorqueo No. 2 228,495 145 - 3 - 0 - 0 - 4 148 2020-02-21 10:15:51
2,104 ETERNAL DRAIN 507,160 315 - 17 - 1 - 12 - 5 333 2020-02-21 09:27:30
1,071 Mozart on Crack 1,243,055 1,338 - 71 - 2 - 6 - 31 490 2020-02-21 09:22:56
1,629 Flame Repellent 64,825 41 - 1 - 0 - 0 - 0 42 2020-02-21 09:18:30
1,277 Lune Noir 1,094,270 679 - 59 - 7 - 1 - 24 705 2020-02-21 09:17:52
990 Bits and Bytes (Original Mix) 1,099,155 1,004 - 38 - 3 - 4 - 21 538 2020-02-21 09:14:16
3,383 Bits and Bytes (Original Mix) 123,690 78 - 4 - 0 - 1 - 0 80 2020-02-21 09:11:20
438 Ereshkigal 234,030 175 - 30 - 0 - 1 - 8 130 2020-02-21 09:10:21
2,433 L9 1,164,915 1,010 - 59 - 6 - 2 - 26 594 2020-02-21 09:08:56
3,125 Bit Blue 187,585 208 - 27 - 2 - 7 - 9 68 2020-02-20 07:56:35
18,358 Szamar Madar 3,100 2 - 0 - 0 - 0 - 0 2 2020-02-20 07:55:46
2,153 Gangsters Paradise (Candyland's OG Remix) 525,475 317 - 26 - 1 - 0 - 4 344 2020-02-20 07:55:21
7,738 Happy Happy Shining Star!! [Heavy] 286,865 285 - 21 - 0 - 2 - 2 125 2020-02-20 07:52:56
8,014 do i smile? 169,750 184 - 47 - 1 - 17 - 8 61 2020-02-19 14:57:11
84 entering space 1,227,410 1,075 - 48 - 2 - 9 - 18 626 2020-02-19 05:07:46
3,346 Teh Tricky Techno 454,160 421 - 42 - 4 - 6 - 15 213 2020-02-19 05:05:15
2,767 {Arabian Assassin} 746,685 625 - 29 - 2 - 3 - 11 396 2020-02-19 05:03:57
2,131 Haven 1,255,210 898 - 28 - 0 - 1 - 4 754 2020-02-19 05:01:36
606 Emotional Adventure 630,970 585 - 14 - 2 - 2 - 6 306 2020-02-19 04:58:47
5,143 Youkoso! Himitsu no Janbaraya! 646,200 661 - 57 - 3 - 3 - 13 268 2020-02-16 18:29:55
21,564 Youkoso! Himitsu no Janbaraya! 311,115 183 - 25 - 0 - 1 - 5 204 2020-02-16 18:27:37
27,118 Youkoso! Himitsu no Janbaraya! 74,555 44 - 5 - 0 - 0 - 1 49 2020-02-16 18:18:29
4,507 Youkoso! Himitsu no Janbaraya! 867,765 677 - 41 - 4 - 2 - 23 485 2020-02-16 18:11:03
2,412 PSYCHIC DiVE 576,270 637 - 55 - 3 - 9 - 29 214 2020-02-16 18:09:18
13,161 Solitude Sun 317,670 254 - 19 - 3 - 4 - 9 174 2020-02-16 18:07:15
618 Emotional Adventure 760,700 583 - 17 - 1 - 2 - 3 436 2020-02-16 18:04:21
64 Headless Beast 714,275 852 - 29 - 0 - 6 - 22 240 2020-02-15 15:13:23
3,736 Hyper Hyper -Definitive Version- 781,865 731 - 33 - 2 - 3 - 22 372 2020-02-15 15:10:55
341 Welcome to My Kastle 469,975 310 - 22 - 7 - 2 - 17 294 2020-02-15 15:08:46
3,367 Halcyon [xi] 262,185 201 - 11 - 0 - 1 - 4 149 2020-02-15 15:07:49
3,506 00.01 787,675 643 - 61 - 4 - 1 - 33 418 2020-02-15 15:06:39
24,407 00.01 14,960 5 - 4 - 2 - 0 - 0 11 2020-02-15 15:05:02
3,362 Haven 938,200 874 - 46 - 4 - 3 - 22 446 2020-02-15 15:00:33
3,381 Emerald Hill (Metaljonus Mix) [FC] 602,785 375 - 17 - 0 - 0 - 7 392 2020-02-15 14:57:05
482 This Will Be The Day (James Landino's Magical Girl Remix) 1,096,835 1,085 - 74 - 5 - 6 - 34 482 2020-02-15 14:53:40
3,064 The Decisive Battle [FC] 849,530 519 - 33 - 3 - 0 - 8 555 2020-02-15 14:48:46
2,796 Caprice for Violin in B minor Theme and Variations 572,920 546 - 46 - 10 - 10 - 24 263 2020-02-15 14:47:23
39,589 600 AD in Piano 86,495 60 - 3 - 0 - 1 - 1 53 2020-02-15 14:45:08
969 I'm Alive (Jarvis Remix) 654,960 681 - 82 - 4 - 6 - 25 260 2020-02-15 13:48:38
3,633 Euthanasia 803,375 742 - 67 - 0 - 5 - 30 379 2020-02-15 08:42:53
5,551 Evil Approaches 608,650 673 - 64 - 0 - 8 - 31 224 2020-02-14 16:21:20
1,721 Danzai Yamaxanadu! 776,280 890 - 70 - 4 - 13 - 33 272 2020-02-14 16:19:04
2,606 Beauty Is In The Eyes Of The Beerholder 893,330 839 - 58 - 2 - 6 - 16 418 2020-02-14 16:16:12
1,514 G4M3 0V3R 127,525 144 - 42 - 1 - 10 - 9 40 2020-02-14 16:13:16
41,335 600 AD in Piano 5,615 3 - 1 - 0 - 1 - 0 4 2020-02-14 16:12:51
6,032 600 AD in Piano 720,350 906 - 70 - 2 - 15 - 33 208 2020-02-14 16:11:51
1,480 Sleep Tight 349,890 352 - 61 - 3 - 7 - 24 142 2020-02-14 16:08:39
2,943 Animus Intorqueo No. 2 247,605 214 - 52 - 3 - 4 - 16 117 2020-02-14 16:07:24
10,319 Lovely Lovely Lovely 458,645 473 - 116 - 1 - 10 - 18 170 2020-02-13 11:34:48
1,960 Mario Mix for Piano 658,400 804 - 119 - 5 - 20 - 30 190 2020-02-13 11:33:18
617 Zephyros 38,165 32 - 15 - 0 - 8 - 4 19 2020-02-13 11:30:57
23,689 Beauty Is In The Eyes Of The Beerholder 15,685 9 - 5 - 0 - 2 - 1 10 2020-02-13 11:29:52
1,418 Child Protective Services Theme Song [Heavy] 70,910 50 - 17 - 1 - 4 - 4 40 2020-02-13 11:29:36
2,454 Creative Happy 38,230 37 - 17 - 1 - 9 - 3 16 2020-02-13 11:29:11
630 Zephyros 26,180 27 - 4 - 2 - 6 - 1 12 2020-02-13 11:28:36
2,219 Finder Keepers 132,340 127 - 37 - 5 - 12 - 12 56 2020-02-13 01:38:26
4,406 Church Bells 91,905 62 - 15 - 0 - 4 - 4 55 2020-02-13 01:37:53
42,069 Let Mom Sleep 254,825 157 - 9 - 0 - 0 - 0 166 2020-02-12 09:38:51
4,128 My Little Pony Medley [Standard] 661,770 455 - 21 - 3 - 4 - 9 407 2020-02-12 09:37:53
4,332 Tetris Remix 659,160 523 - 16 - 4 - 3 - 9 368 2020-02-12 09:36:01
72,477 Tetris Remix 61,915 36 - 4 - 1 - 0 - 2 41 2020-02-12 09:33:50
70,897 Tetris Remix 187,080 122 - 3 - 1 - 6 - 2 121 2020-02-12 09:33:26
4,592 Go Go Go Power Rangers 750,960 492 - 38 - 0 - 3 - 8 471 2020-02-12 09:31:26
839 BEER! [Psychostick] [FC] 1,115,965 698 - 26 - 1 - 0 - 7 725 2020-02-12 09:29:19
18,885 Epic 1,455 1 - 1 - 0 - 1 - 3 1 2020-02-12 09:17:00
11,634 Epic 317,775 220 - 45 - 0 - 8 - 6 187 2020-02-12 09:16:46
7,671 Garyuutensei 35,100 21 - 2 - 0 - 0 - 0 23 2020-02-11 20:52:03
6,211 Garyuutensei 256,975 236 - 33 - 0 - 6 - 2 120 2020-02-11 10:32:35
6,358 Garyuutensei 230,000 215 - 22 - 0 - 4 - 3 107 2020-02-11 07:22:19
1,942 ETERNAL DRAIN 696,170 435 - 56 - 10 - 5 - 24 443 2020-02-11 05:55:37
2,986 All i wanna do is touch your powerpoints 235,315 149 - 51 - 0 - 2 - 2 140 2020-02-11 05:54:21
2,450 Magical Higan Tour 2009 15,170 10 - 0 - 0 - 1 - 1 10 2020-02-11 05:53:36
1,612 -+ 115,245 77 - 19 - 0 - 1 - 1 68 2020-02-11 05:53:15
1,910 Missing You (Gammer Remix) 9,300 6 - 0 - 0 - 0 - 0 6 2020-02-11 05:51:50
2,087 Iced Innocence 204,780 154 - 34 - 0 - 7 - 5 113 2020-02-11 05:51:33
2,642 Piano Sonata No. 16 66,355 42 - 1 - 0 - 0 - 1 43 2020-02-11 05:51:04
2,661 Piano Sonata No. 16 45,655 27 - 3 - 0 - 0 - 1 30 2020-02-11 05:50:21
2,671 Piano Sonata No. 16 35,650 23 - 0 - 0 - 0 - 0 23 2020-02-11 05:50:07
2,640 Piano Sonata No. 16 68,160 44 - 0 - 0 - 0 - 2 44 2020-02-11 05:49:02
2,724 Piano Sonata No. 16 14,850 8 - 2 - 0 - 0 - 5 10 2020-02-11 05:48:11
1,806 Piano Sonata No. 16 566,825 552 - 112 - 3 - 8 - 13 235 2020-02-11 05:47:40
775 Koi no Sakisaki Revolution desu yo 392,545 412 - 17 - 0 - 5 - 9 163 2020-02-11 05:45:48
1,133 Koi no Sakisaki Revolution desu yo 4,650 3 - 0 - 0 - 0 - 0 3 2020-02-11 05:44:44
1,631 FFR [FC] 557,175 357 - 3 - 0 - 0 - 0 360 2020-02-11 05:42:49
948 hehenonomohe 170,240 100 - 12 - 0 - 0 - 3 112 2020-02-11 05:40:45
3,227 Ambient Angels 747,695 518 - 94 - 1 - 5 - 28 439 2020-02-11 05:30:52
2,690 burned down the ghost house and escaped spooks 6,200 4 - 0 - 0 - 0 - 0 4 2020-02-11 05:29:24
1,514 s.s.s.s. 317,910 248 - 28 - 8 - 1 - 16 174 2020-02-11 05:29:08
2,852 Rainbow Tylenol 624,520 470 - 31 - 1 - 4 - 16 359 2020-02-11 05:24:43
1,026 Princess Lolitits 528,930 485 - 30 - 0 - 3 - 7 255 2020-02-11 05:22:12
494 This Will Be The Day (James Landino's Magical Girl Remix) 1,229,995 1,080 - 78 - 5 - 7 - 28 617 2020-02-11 05:20:16
33,732 Etude To A Dragon 130,375 80 - 6 - 1 - 1 - 1 85 2020-02-11 05:16:56
3,562 Haven 882,425 869 - 51 - 0 - 7 - 19 393 2020-02-11 05:13:38
8,233 Sword Strike 433,915 264 - 26 - 1 - 1 - 9 282 2020-02-11 05:09:56
1,705 Caprice for Violin in B minor Theme and Variations 1,068,480 1,280 - 164 - 14 - 33 - 108 331 2020-02-11 05:08:17
2,556 A World Of Piano 1,134,445 1,311 - 121 - 4 - 8 - 31 383 2020-02-11 05:04:05
11,903 Be Princess 423,165 359 - 67 - 0 - 5 - 8 209 2020-02-11 04:59:03
2,658 Windy Valley (Genesis'd) 261,220 203 - 41 - 1 - 2 - 7 139 2020-02-06 20:49:49
1,406 Sleep Tight 416,170 414 - 94 - 2 - 7 - 16 165 2020-02-06 19:38:32
1,565 Happy Happy Shining Star!! [Light] 653,135 428 - 15 - 0 - 1 - 4 414 2020-02-06 19:36:40
74,779 8-Bit Day Dreamer 40,190 26 - 2 - 0 - 2 - 2 26 2020-02-06 19:34:14
10,683 Forsaken Neon 193,510 183 - 26 - 0 - 7 - 6 88 2020-02-06 19:33:22
10,180 Forsaken Neon 290,495 262 - 55 - 6 - 12 - 17 135 2020-02-06 15:59:43
10,508 Forsaken Neon 207,670 203 - 41 - 3 - 10 - 16 88 2020-02-06 15:22:33
19,641 Seven 6,200 4 - 0 - 0 - 0 - 0 4 2020-02-06 15:21:45
8,932 SHIND BAD [Cut] 341,755 201 - 28 - 1 - 1 - 12 224 2020-02-06 15:20:24
34,433 Get Ready 2 Rokk 168,080 110 - 8 - 0 - 2 - 0 106 2020-02-06 15:19:01
35,472 Get Ready 2 Rokk 140,950 90 - 6 - 0 - 20 - 0 96 2020-02-06 15:18:25
4,207 Princess Lolitits 12,400 8 - 0 - 0 - 0 - 0 8 2020-02-06 15:17:56
1,617 Miss Candy on TV 109,840 80 - 74 - 4 - 11 - 16 49 2020-02-06 15:17:26
8,160 Determine 362,580 231 - 6 - 0 - 10 - 1 237 2020-02-06 15:16:16
1,273 Alone Again At 4AM 487,730 328 - 6 - 2 - 1 - 6 306 2020-02-06 15:14:11
7,492 Kamonene 100% 254,075 190 - 43 - 2 - 4 - 6 139 2020-02-06 15:00:53
2,476 Crimson Flood 140,590 131 - 77 - 1 - 11 - 14 51 2020-02-06 15:00:09
5,793 Entry of the Gladiators, Op.68 212,250 132 - 6 - 0 - 0 - 0 138 2020-02-06 14:18:40
13,510 Be Princess 417,660 262 - 33 - 1 - 21 - 3 271 2020-02-06 14:15:24
1,448 Alive (Pegboard Nerds Remix) [Heavy] 492,715 476 - 81 - 2 - 23 - 17 216 2020-02-06 14:14:07
26,278 AAA 289,655 280 - 149 - 6 - 13 - 31 99 2020-02-06 14:10:16
1,609 Missing You (Gammer Remix) 359,385 285 - 57 - 2 - 3 - 11 188 2020-02-06 14:08:53
9,617 Lunar Saturation 222,115 210 - 105 - 4 - 16 - 26 83 2020-02-06 14:06:49
1,970 Iced Innocence 193,020 160 - 100 - 4 - 14 - 18 82 2020-02-06 14:05:30
2,105 Iced Innocence 246,960 141 - 44 - 2 - 2 - 9 158 2020-02-06 13:36:00
17,875 Doomsayer 126,960 73 - 32 - 4 - 3 - 14 79 2020-02-06 13:35:16
1,397 Stuck 92,525 82 - 1 - 0 - 9 - 3 50 2020-02-06 13:33:56
1,670 where is my balls 178,285 179 - 46 - 9 - 9 - 26 70 2020-02-06 13:32:52
9,919 Life Light 160,810 141 - 4 - 0 - 22 - 1 89 2020-02-06 13:31:57
5,722 Gacha Gacha Cute Figu atto Mate 255,010 251 - 46 - 0 - 21 - 9 111 2020-02-06 13:30:35
1,773 Boot 416,260 335 - 82 - 2 - 11 - 12 213 2020-02-06 13:29:40
2,664 All i wanna do is touch your powerpoints 331,325 300 - 149 - 8 - 11 - 34 129 2020-02-06 13:28:19
2,300 Fill Me Up With Snacky Happiness 224,470 196 - 63 - 3 - 8 - 17 102 2020-02-06 13:26:05
2,652 Smoke Weed Everyday 11,965 8 - 3 - 0 - 4 - 1 8 2020-02-06 13:25:16
1,963 Smoke Weed Everyday 254,330 229 - 39 - 1 - 10 - 15 121 2020-02-06 12:50:22
1,952 burned down the ghost house and escaped spooks 470,205 357 - 46 - 3 - 22 - 7 268 2020-02-06 12:44:58
10,483 Cutting Circles 399,885 337 - 92 - 3 - 11 - 26 193 2020-02-06 11:55:54
210 Starchaser 960,005 743 - 64 - 1 - 4 - 3 535 2020-02-05 09:44:10
783 Koi no Sakisaki Revolution desu yo 455,345 373 - 31 - 0 - 7 - 8 244 2020-02-05 09:41:41
6,101 Garyuutensei 223,280 240 - 68 - 0 - 14 - 4 77 2020-02-05 09:40:30
7,735 Garyuutensei 4,650 3 - 0 - 0 - 0 - 0 3 2020-02-05 09:39:48
1,917 Finder Keepers 292,135 260 - 78 - 1 - 7 - 10 130 2020-02-05 09:39:25
32,586 Death Piano 186,190 190 - 169 - 5 - 60 - 23 54 2020-02-05 09:37:49
6,288 Sepia 585,785 670 - 82 - 3 - 7 - 13 197 2020-02-05 09:36:25
1,079 Stark Raving Mad 425,075 366 - 112 - 1 - 6 - 11 195 2020-02-05 09:33:56
2,492 Addict 377,535 398 - 89 - 0 - 18 - 13 140 2020-02-05 09:32:44
12,115 Wish (For FFR) 303,140 212 - 55 - 1 - 8 - 8 174 2020-02-05 09:31:18
7,908 Yakusoku -HappyHyperStarmiX- 485,575 603 - 150 - 5 - 16 - 32 118 2020-02-05 09:30:36
11,954 Be Princess 331,340 334 - 119 - 1 - 18 - 28 121 2020-02-05 09:28:37
6,417 Gacha Gacha Cute Figu atto Mate 156,565 142 - 29 - 2 - 8 - 7 73 2020-02-05 09:27:35
1,389 burned down the ghost house and escaped spooks 631,715 709 - 179 - 2 - 23 - 22 200 2020-02-05 09:26:18
385 Amnolys 337,345 383 - 118 - 5 - 15 - 19 99 2020-02-05 09:23:58
2,713 All i wanna do is touch your powerpoints 302,040 249 - 154 - 2 - 25 - 31 131 2020-02-05 09:22:38
3,348 Ambient Angels 345,950 406 - 188 - 4 - 21 - 38 78 2020-02-05 09:21:31
19,257 20031023 340,585 336 - 54 - 1 - 6 - 13 143 2020-02-05 09:19:59
5,389 Playdoh 603,570 799 - 167 - 3 - 17 - 35 124 2020-02-05 09:18:42
6,629 Famouz 355,750 272 - 108 - 2 - 10 - 28 180 2020-02-05 09:15:51
12,198 Doomsayer 137,490 137 - 73 - 11 - 10 - 22 45 2020-02-05 09:14:36
159 {Stay With Me} 657,045 481 - 71 - 2 - 6 - 14 375 2020-02-05 09:13:41
1,205 Walk on Water 900,280 928 - 150 - 8 - 13 - 39 353 2020-02-05 09:11:49
14,008 Dazzling Soul 412,735 387 - 119 - 2 - 11 - 27 171 2020-02-05 09:08:43
3,896 Dokodemo Kawaii 621,810 679 - 136 - 16 - 18 - 67 217 2020-02-05 09:06:56
9,100 Infinity 301 500,185 473 - 107 - 2 - 10 - 20 214 2020-02-05 09:03:47
13,283 Infinity 301 224,730 223 - 44 - 0 - 6 - 8 92 2020-02-05 09:01:44
18,124 Solitude Sun 78,820 50 - 6 - 0 - 1 - 1 50 2020-02-05 09:00:26
29,827 Hyper Hyper -Definitive Version- 249,690 197 - 39 - 1 - 4 - 10 132 2020-02-05 08:59:22
144 entering space 245,820 282 - 23 - 1 - 8 - 9 87 2020-02-04 09:34:58
6,504 L9 228,065 236 - 65 - 2 - 14 - 19 85 2020-02-04 09:33:43
624 Smoke Weed Everyday 672,945 552 - 60 - 1 - 3 - 14 354 2020-02-04 09:32:54
1,161 Dead Throne 312,640 258 - 61 - 1 - 5 - 27 156 2020-02-03 20:52:54
12,092 A World Of Piano 148,140 116 - 3 - 1 - 8 - 3 86 2020-02-03 20:49:45
28,256 -Y 287,735 338 - 106 - 3 - 22 - 33 80 2020-02-03 20:46:51
235 Come With Me [Virtual Riot] 329,695 324 - 57 - 2 - 3 - 18 137 2020-02-03 20:05:04
3,547 Drizzling Rain 378,590 226 - 21 - 3 - 5 - 5 250 2020-02-03 19:53:59
3,769 Death March 627,535 469 - 70 - 5 - 4 - 35 352 2020-02-03 19:52:58
9,170 Death March 214,430 132 - 8 - 0 - 1 - 3 140 2020-02-03 19:29:08
7,238 Electric Obsession 338,675 242 - 26 - 1 - 21 - 6 205 2020-02-03 19:27:34
9,865 Electric Obsession 64,515 45 - 1 - 0 - 21 - 0 46 2020-02-03 19:25:39
3,749 Keep It Short 21,705 16 - 1 - 0 - 1 - 3 13 2020-02-03 19:25:11
4,535 Infinity 301 567,500 617 - 71 - 5 - 7 - 24 211 2020-02-03 19:24:21
4,290 Haven 1,033,500 840 - 82 - 0 - 5 - 25 551 2020-02-03 19:22:27
21,544 Fantranstic 280,625 289 - 35 - 0 - 15 - 15 117 2020-02-03 19:19:47
1,730 Dark World 117,555 94 - 18 - 1 - 3 - 11 62 2020-01-28 08:42:52
2,817 Crimson Flood 4,650 3 - 0 - 0 - 0 - 0 3 2020-01-28 08:42:13
2,624 Crimson Flood 149,425 81 - 19 - 0 - 1 - 2 100 2020-01-28 08:41:29
10,710 None Would Escape 243,390 186 - 15 - 1 - 3 - 8 138 2020-01-28 08:40:02
12,418 None Would Escape 86,525 55 - 1 - 0 - 0 - 0 56 2020-01-28 08:38:54
12,532 None Would Escape 39,435 23 - 3 - 0 - 0 - 2 26 2020-01-28 08:38:16
10,341 Sympathizer 360,905 444 - 69 - 2 - 10 - 14 101 2020-01-28 08:37:25
13,319 Cutting Circles 126,495 87 - 25 - 0 - 3 - 15 73 2020-01-28 08:36:01
2,444 burned down the ghost house and escaped spooks 148,120 96 - 6 - 0 - 1 - 1 94 2020-01-28 08:35:34
1,921 Reaching for the Floor 207,000 181 - 44 - 0 - 5 - 5 97 2020-01-25 19:23:21
2,482 Wow, I Can Get Sexual Too 933,515 819 - 110 - 7 - 7 - 20 455 2020-01-25 18:30:52
23,980 Hanabi 201,700 162 - 22 - 0 - 1 - 7 107 2020-01-25 18:26:49
5,272 Maple Leaf Rag 1,215,710 1,031 - 120 - 0 - 4 - 5 617 2020-01-25 18:25:58
2,858 Kyomu no Kareha no Tsumugiuta 502,870 479 - 81 - 1 - 9 - 6 220 2020-01-25 18:22:56
20,760 Guitar Vs. Piano 618,370 688 - 139 - 5 - 25 - 39 210 2020-01-25 18:20:58
1,622 -+ 90,925 65 - 22 - 1 - 9 - 7 52 2020-01-25 18:17:37
828 -+ 760,010 895 - 325 - 15 - 48 - 78 194 2020-01-25 18:16:57
2,272 Back to the Gate 254,055 213 - 59 - 0 - 4 - 4 122 2020-01-25 18:13:25
3,067 Shinryuu 223,095 227 - 25 - 0 - 5 - 4 93 2020-01-25 18:12:34
38,721 Just Died 322,290 295 - 43 - 1 - 8 - 18 151 2020-01-25 18:11:27
23,082 Sea Breeze [Beginner] 102,925 78 - 43 - 2 - 9 - 6 51 2020-01-25 18:10:14
1,422 Bring The Madness 398,325 397 - 51 - 2 - 6 - 15 168 2020-01-25 18:09:42
6,470 Euthanasia 543,655 642 - 155 - 8 - 9 - 36 151 2020-01-25 18:08:04
24,430 Euthanasia 45,465 30 - 1 - 0 - 1 - 0 29 2020-01-25 18:06:03
24,318 Euthanasia 53,490 35 - 2 - 0 - 1 - 0 34 2020-01-25 18:05:22
5,917 DT Rabbit Blood Festival 762,095 926 - 144 - 1 - 14 - 26 218 2020-01-25 18:04:50
38,194 DT Rabbit Blood Festival 85,520 55 - 2 - 0 - 4 - 2 56 2020-01-25 18:01:54
46,038 DT Rabbit Blood Festival 9,300 6 - 0 - 0 - 0 - 0 6 2020-01-25 18:01:11
184 Tornado 909,225 943 - 197 - 8 - 16 - 54 342 2020-01-25 18:00:09
472 Mindreader 650,540 666 - 105 - 5 - 7 - 37 258 2020-01-25 17:56:25
1,057 OWA Raged at Kurorak for Making OWA Raged at Skeletor 116,670 60 - 33 - 1 - 4 - 11 76 2020-01-25 17:53:59
3,620 Ambient Angels 306,420 228 - 107 - 3 - 3 - 32 153 2020-01-25 17:53:24
1,377 burned down the ghost house and escaped spooks 741,760 705 - 190 - 4 - 14 - 56 307 2020-01-25 17:52:18
9,452 Fantranstic 646,510 721 - 155 - 3 - 25 - 54 216 2020-01-25 17:48:56
9,483 Haven 545,320 584 - 152 - 2 - 13 - 38 187 2020-01-10 05:51:14
19,686 Etude To A Dragon 443,425 308 - 19 - 4 - 4 - 9 270 2020-01-10 05:48:22
2,813 Endless Tewi-ma Park 366,655 340 - 34 - 1 - 5 - 10 172 2020-01-10 05:46:37
7,961 Electro Rush x8 693,665 660 - 118 - 1 - 8 - 18 301 2020-01-10 05:45:06
7,615 Chaoz Fantasy 352,535 307 - 31 - 0 - 8 - 18 178 2020-01-10 05:42:53
1,936 tetris [Songs To Wear Pants To] 469,345 323 - 33 - 0 - 4 - 7 284 2020-01-10 05:40:43
718 Pull in Pull in Popped Syo Call up Arrest 569,915 615 - 75 - 8 - 6 - 27 213 2020-01-10 05:38:37
5,434 The Past 313,720 272 - 20 - 2 - 1 - 9 159 2020-01-10 05:35:07
19,250 ROAR (Rage Mix) 358,815 311 - 46 - 1 - 22 - 6 182 2020-01-10 05:33:25
33,064 ROAR (Rage Mix) 9,300 6 - 0 - 0 - 0 - 0 6 2020-01-10 05:32:22
2,657 Kire Kire Mayoi 722,835 568 - 40 - 1 - 4 - 19 401 2020-01-10 05:31:24
13,510 Air Breeze 261,940 280 - 52 - 0 - 10 - 13 97 2020-01-10 05:29:26
13,535 Be Princess 262,470 239 - 70 - 4 - 13 - 21 116 2020-01-04 04:25:19
5,551 Pulling Through 370,210 333 - 66 - 0 - 15 - 22 174 2020-01-04 04:24:31
7,047 Haven 681,820 710 - 189 - 5 - 23 - 40 247 2020-01-04 04:22:56
2,961 Carrots 196,880 197 - 18 - 0 - 4 - 9 85 2020-01-04 04:20:13
9,677 Cruel Whole (Abelcain Remix) 360,840 283 - 38 - 2 - 7 - 10 197 2020-01-04 04:18:59
1,549 Alive (Pegboard Nerds Remix) [Standard] 866,825 812 - 35 - 0 - 4 - 8 412 2020-01-04 04:17:35
532 hehenonomohe 184,340 171 - 48 - 4 - 3 - 10 78 2020-01-04 04:14:08
28,796 World of Dreams 274,375 224 - 19 - 0 - 3 - 6 147 2020-01-01 00:19:37
23,606 Hyper Hyper -Definitive Version- 284,965 332 - 50 - 3 - 13 - 26 93 2020-01-01 00:16:35
1,063 Emotional Adventure 629,670 562 - 34 - 2 - 5 - 17 313 2020-01-01 00:15:22
2,021 Death March 578,430 533 - 34 - 4 - 9 - 25 279 2020-01-01 00:12:42
48,279 Ingenuity 150,780 107 - 12 - 0 - 1 - 3 89 2019-12-30 23:08:00
45,616 Cash Cow 17,355 9 - 5 - 0 - 3 - 2 12 2019-12-30 23:07:11
3,592 Shinryuu 352,515 214 - 38 - 3 - 2 - 9 225 2019-12-30 22:04:28
7,683 Shinryuu 43,125 27 - 1 - 0 - 0 - 0 28 2019-12-30 22:03:12
7,667 Shinryuu 49,740 31 - 4 - 0 - 11 - 0 35 2019-12-30 22:02:43
1,498 N's Farewell 332,790 337 - 16 - 0 - 6 - 5 145 2019-12-30 21:58:41
2,574 Time Bomb 362,745 222 - 24 - 1 - 3 - 4 235 2019-12-29 15:48:17
2,845 Waltz of Spring 403,060 483 - 63 - 5 - 9 - 20 123 2019-12-29 15:12:28
2,736 Happy Happy Shining Star!! [Light] 596,715 400 - 39 - 0 - 5 - 23 368 2019-12-29 15:08:23
541 hehenonomohe 168,415 171 - 39 - 8 - 8 - 16 66 2019-12-28 10:39:55
173 Highways of Ice 129,625 129 - 37 - 10 - 5 - 25 50 2019-12-28 00:02:36
2,464 Go Beyond!! -Jazzy mix- 47,875 31 - 27 - 2 - 5 - 8 25 2019-12-28 00:01:28
4,553 DESIRE DRIVE (LLS HARDCORE REMIX) [Standard] 162,205 99 - 16 - 1 - 2 - 4 104 2019-12-28 00:00:01
17,134 AM-3P (House Party Dub) 183,200 184 - 31 - 5 - 8 - 16 76 2019-12-27 23:59:26
10,441 Death March 2,770 2 - 0 - 0 - 1 - 1 2 2019-12-27 23:58:27
2,931 Dreadnought [Standard] 342,180 339 - 23 - 1 - 5 - 5 151 2019-12-27 14:13:55
6,421 Leeroy Jenkins (Fun Time Mix) 381,975 448 - 74 - 5 - 21 - 27 122 2019-12-27 13:23:28
2,273 Back to the Gate 192,940 218 - 28 - 0 - 8 - 9 68 2019-12-27 13:21:28
1,790 Smoke Weed Everyday 388,655 258 - 35 - 2 - 6 - 6 239 2019-12-27 13:17:40
6,252 Get Ready 2 Rokk 731,945 944 - 105 - 6 - 22 - 32 191 2019-12-27 13:16:05
1,396 Emotional Adventure 515,000 540 - 50 - 4 - 9 - 9 207 2019-12-27 13:12:48
449 hehenonomohe 269,435 185 - 33 - 6 - 2 - 5 159 2019-12-27 13:10:02
10,023 Fett's Vette 467,380 443 - 49 - 5 - 8 - 27 213 2019-12-27 13:08:53
6,942 Breathe [TwoThirds] 150,370 93 - 7 - 1 - 2 - 7 98 2019-12-27 13:05:47
27,675 {Losing Touch} 414,615 254 - 34 - 1 - 1 - 9 266 2019-12-26 21:08:56
2,795 Back to the Gate 83,600 49 - 6 - 0 - 0 - 0 55 2019-12-26 21:05:57
2,237 W 736,375 701 - 123 - 12 - 14 - 16 321 2019-12-26 21:05:02
6,589 W 35,375 22 - 1 - 0 - 0 - 0 23 2019-12-26 21:01:19
345 hehenonomohe 274,075 200 - 22 - 1 - 3 - 5 159 2019-12-26 21:00:07
75,587 My Darkest Hour 85,300 61 - 4 - 0 - 1 - 2 51 2019-12-26 20:58:57
4,493 Lesson 379,540 374 - 21 - 1 - 3 - 3 169 2019-12-26 20:57:26
3,732 Three Ring Nightfall 756,975 582 - 67 - 2 - 4 - 21 420 2019-12-26 02:21:37
27,389 Sonic 1 Final Zone [FC] 269,055 155 - 21 - 2 - 0 - 4 178 2019-12-26 02:18:11
3,934 Skate or Die 2 [FC] 252,895 151 - 14 - 1 - 0 - 3 166 2019-12-26 02:16:49
1,741 Atlast 183,970 142 - 12 - 0 - 1 - 6 103 2019-12-26 02:15:10
2,788 Happy Happy Shining Star!! [Light] 337,310 402 - 33 - 1 - 8 - 22 110 2019-12-26 02:10:22
8,075 Axel Man 5,160 5 - 0 - 0 - 5 - 2 4 2019-12-26 02:08:44
7,745 Axel Man 50,360 21 - 14 - 0 - 0 - 2 35 2019-12-26 02:08:30
5,578 Hey, Ladies 428,090 475 - 98 - 12 - 13 - 37 144 2019-12-24 19:27:43
574 hehenonomohe 157,560 156 - 54 - 6 - 10 - 16 60 2019-12-24 19:24:22
5,205 Electric Obsession 448,735 387 - 69 - 6 - 10 - 16 220 2019-12-24 19:22:56
4,303 I Am Robot 661,460 374 - 61 - 9 - 1 - 10 439 2019-12-24 19:20:31
19,035 Arrrrrr 108,560 65 - 8 - 0 - 1 - 4 71 2019-12-24 19:18:11
4,093 Pollyanna [FC] 155,250 87 - 16 - 0 - 0 - 0 103 2019-12-24 19:16:36
8,907 Pollyanna 3,080 2 - 0 - 0 - 0 - 1 2 2019-12-24 19:15:33
6,294 Pollyanna 135,470 82 - 6 - 2 - 1 - 4 89 2019-12-24 19:15:29
2,802 Bodies In The House Next Door 90,390 101 - 18 - 4 - 7 - 8 32 2019-12-24 19:11:39
75,977 Sound of my Dream RMX 1,275 0 - 1 - 0 - 0 - 0 1 2019-12-24 19:09:16
2,007 No One 298,810 240 - 51 - 7 - 4 - 18 154 2019-12-24 19:07:19
2,316 Glaciate 481,355 360 - 45 - 2 - 3 - 10 272 2019-12-24 19:04:39
7,121 Fierce Combat 361,105 316 - 64 - 3 - 4 - 11 171 2019-12-24 19:00:28
3,334 Dating Start! 190,220 208 - 56 - 8 - 14 - 34 65 2019-12-24 03:18:38
4,446 Agenda X 468,810 478 - 49 - 5 - 10 - 37 196 2019-12-24 03:17:19
4,019 bluebird 1,275 0 - 1 - 0 - 0 - 0 1 2019-12-24 03:15:21
2,412 tightrope city 390,570 418 - 32 - 2 - 6 - 19 154 2019-12-24 03:15:01
1,833 Still Blastin [Light] 499,715 356 - 34 - 3 - 4 - 18 296 2019-12-24 03:12:16
329 Sea of Dreams 5,595 3 - 1 - 0 - 1 - 1 4 2019-12-24 03:10:16
178 Sea of Dreams 242,250 276 - 31 - 3 - 6 - 19 84 2019-12-24 03:09:52
12,503 Save Me [For Great Justice!] 385,460 436 - 45 - 3 - 14 - 27 138 2019-12-24 03:08:05
7,986 Sakura Blue Sky 245,275 263 - 37 - 4 - 11 - 18 94 2019-12-24 03:05:54
15,823 Infection 532,175 464 - 84 - 5 - 6 - 27 256 2019-12-24 03:04:02
1 2